<?xml version='1.0' encoding='UTF-8'?><gpx version="1.1" creator="JPX - https://github.com/jenetics/jpx" xmlns="http://www.topografix.com/GPX/1/1"><trk><trkseg><trkpt lat="44.7543133" lon="10.2261917"><ele>115.0</ele><time>2026-04-08T09:10:46.989Z</time></trkpt><trkpt lat="44.7542533" lon="10.2262483"><ele>115.0</ele><time>2026-04-08T09:10:55.989Z</time></trkpt><trkpt lat="44.7542117" lon="10.226355"><ele>115.0</ele><time>2026-04-08T09:10:57.988Z</time></trkpt><trkpt lat="44.7541817" lon="10.2265117"><ele>115.0</ele><time>2026-04-08T09:10:59.989Z</time></trkpt><trkpt lat="44.7541683" lon="10.2266183"><ele>115.0</ele><time>2026-04-08T09:11:00.988Z</time></trkpt><trkpt lat="44.754135" lon="10.2267617"><ele>115.0</ele><time>2026-04-08T09:11:02.989Z</time></trkpt><trkpt lat="44.7540917" lon="10.226855"><ele>115.0</ele><time>2026-04-08T09:11:04.988Z</time></trkpt><trkpt lat="44.7540167" lon="10.2269417"><ele>115.0</ele><time>2026-04-08T09:11:07.989Z</time></trkpt><trkpt lat="44.7539267" lon="10.2269633"><ele>115.0</ele><time>2026-04-08T09:11:09.989Z</time></trkpt><trkpt lat="44.7538117" lon="10.22692"><ele>115.0</ele><time>2026-04-08T09:11:11.989Z</time></trkpt><trkpt lat="44.7537483" lon="10.2268617"><ele>115.0</ele><time>2026-04-08T09:11:12.988Z</time></trkpt><trkpt lat="44.7536833" lon="10.2267783"><ele>115.0</ele><time>2026-04-08T09:11:13.989Z</time></trkpt><trkpt lat="44.7536167" lon="10.22665"><ele>115.0</ele><time>2026-04-08T09:11:14.989Z</time></trkpt><trkpt lat="44.7535483" lon="10.2264983"><ele>115.0</ele><time>2026-04-08T09:11:15.989Z</time></trkpt><trkpt lat="44.753475" lon="10.2263367"><ele>115.5</ele><time>2026-04-08T09:11:16.989Z</time></trkpt><trkpt lat="44.7534017" lon="10.22617"><ele>116.0</ele><time>2026-04-08T09:11:17.988Z</time></trkpt><trkpt lat="44.7533217" lon="10.226"><ele>116.5</ele><time>2026-04-08T09:11:18.989Z</time></trkpt><trkpt lat="44.7532483" lon="10.2258367"><ele>117.0</ele><time>2026-04-08T09:11:19.989Z</time></trkpt><trkpt lat="44.75317" lon="10.2256817"><ele>116.75</ele><time>2026-04-08T09:11:20.988Z</time></trkpt><trkpt lat="44.7530933" lon="10.2255283"><ele>116.5</ele><time>2026-04-08T09:11:21.989Z</time></trkpt><trkpt lat="44.753025" lon="10.2253867"><ele>116.25</ele><time>2026-04-08T09:11:22.989Z</time></trkpt><trkpt lat="44.7529583" lon="10.22525"><ele>116.0</ele><time>2026-04-08T09:11:23.989Z</time></trkpt><trkpt lat="44.7529" lon="10.2251217"><ele>115.99999999999999</ele><time>2026-04-08T09:11:24.989Z</time></trkpt><trkpt lat="44.7528433" lon="10.225"><ele>116.0</ele><time>2026-04-08T09:11:25.988Z</time></trkpt><trkpt lat="44.7527867" lon="10.22489"><ele>116.0</ele><time>2026-04-08T09:11:26.988Z</time></trkpt><trkpt lat="44.7527367" lon="10.22479"><ele>116.0</ele><time>2026-04-08T09:11:27.989Z</time></trkpt><trkpt lat="44.752685" lon="10.2246933"><ele>115.99999999999999</ele><time>2026-04-08T09:11:28.988Z</time></trkpt><trkpt lat="44.752645" lon="10.2246083"><ele>116.0</ele><time>2026-04-08T09:11:29.989Z</time></trkpt><trkpt lat="44.7526133" lon="10.2245267"><ele>116.0</ele><time>2026-04-08T09:11:30.988Z</time></trkpt><trkpt lat="44.75255" lon="10.2243933"><ele>116.0</ele><time>2026-04-08T09:11:32.988Z</time></trkpt><trkpt lat="44.7524617" lon="10.2243367"><ele>116.0</ele><time>2026-04-08T09:11:34.989Z</time></trkpt><trkpt lat="44.7523983" lon="10.2243383"><ele>116.0</ele><time>2026-04-08T09:11:35.989Z</time></trkpt><trkpt lat="44.7523167" lon="10.2243417"><ele>116.0</ele><time>2026-04-08T09:11:36.989Z</time></trkpt><trkpt lat="44.75222" lon="10.22434"><ele>116.0</ele><time>2026-04-08T09:11:37.989Z</time></trkpt><trkpt lat="44.7521033" lon="10.2243233"><ele>116.0</ele><time>2026-04-08T09:11:38.989Z</time></trkpt><trkpt lat="44.751965" lon="10.2243133"><ele>116.0</ele><time>2026-04-08T09:11:39.988Z</time></trkpt><trkpt lat="44.7518067" lon="10.2242983"><ele>116.0</ele><time>2026-04-08T09:11:40.989Z</time></trkpt><trkpt lat="44.751635" lon="10.2242733"><ele>116.33333333333333</ele><time>2026-04-08T09:11:41.989Z</time></trkpt><trkpt lat="44.75145" lon="10.2242433"><ele>116.66666666666666</ele><time>2026-04-08T09:11:42.989Z</time></trkpt><trkpt lat="44.751255" lon="10.2242217"><ele>117.0</ele><time>2026-04-08T09:11:43.989Z</time></trkpt><trkpt lat="44.751065" lon="10.2242033"><ele>117.0</ele><time>2026-04-08T09:11:44.988Z</time></trkpt><trkpt lat="44.750885" lon="10.224185"><ele>117.0</ele><time>2026-04-08T09:11:45.989Z</time></trkpt><trkpt lat="44.75072" lon="10.224165"><ele>117.0</ele><time>2026-04-08T09:11:46.989Z</time></trkpt><trkpt lat="44.7505633" lon="10.224145"><ele>117.0</ele><time>2026-04-08T09:11:47.989Z</time></trkpt><trkpt lat="44.7504117" lon="10.2241267"><ele>117.0</ele><time>2026-04-08T09:11:48.989Z</time></trkpt><trkpt lat="44.7502633" lon="10.22411"><ele>117.0</ele><time>2026-04-08T09:11:49.989Z</time></trkpt><trkpt lat="44.7501117" lon="10.2240917"><ele>117.0</ele><time>2026-04-08T09:11:50.988Z</time></trkpt><trkpt lat="44.7499583" lon="10.2240667"><ele>117.0</ele><time>2026-04-08T09:11:51.988Z</time></trkpt><trkpt lat="44.749795" lon="10.2240467"><ele>117.0</ele><time>2026-04-08T09:11:52.988Z</time></trkpt><trkpt lat="44.749625" lon="10.224025"><ele>117.0</ele><time>2026-04-08T09:11:53.989Z</time></trkpt><trkpt lat="44.7494483" lon="10.2240033"><ele>117.0</ele><time>2026-04-08T09:11:54.988Z</time></trkpt><trkpt lat="44.749285" lon="10.223985"><ele>117.0</ele><time>2026-04-08T09:11:55.989Z</time></trkpt><trkpt lat="44.7491283" lon="10.2239617"><ele>117.25</ele><time>2026-04-08T09:11:56.989Z</time></trkpt><trkpt lat="44.7489783" lon="10.2239433"><ele>117.5</ele><time>2026-04-08T09:11:57.988Z</time></trkpt><trkpt lat="44.7488367" lon="10.223925"><ele>117.75</ele><time>2026-04-08T09:11:58.989Z</time></trkpt><trkpt lat="44.748695" lon="10.223905"><ele>118.0</ele><time>2026-04-08T09:11:59.988Z</time></trkpt><trkpt lat="44.74855" lon="10.2238833"><ele>118.33333333333334</ele><time>2026-04-08T09:12:00.989Z</time></trkpt><trkpt lat="44.7483967" lon="10.2238667"><ele>118.66666666666666</ele><time>2026-04-08T09:12:01.989Z</time></trkpt><trkpt lat="44.74824" lon="10.2238467"><ele>119.0</ele><time>2026-04-08T09:12:02.988Z</time></trkpt><trkpt lat="44.7480833" lon="10.223825"><ele>119.0</ele><time>2026-04-08T09:12:03.989Z</time></trkpt><trkpt lat="44.7479333" lon="10.22381"><ele>119.0</ele><time>2026-04-08T09:12:04.989Z</time></trkpt><trkpt lat="44.7477917" lon="10.2237917"><ele>119.0</ele><time>2026-04-08T09:12:05.989Z</time></trkpt><trkpt lat="44.7476617" lon="10.223775"><ele>119.0</ele><time>2026-04-08T09:12:06.988Z</time></trkpt><trkpt lat="44.7475333" lon="10.2237567"><ele>119.5</ele><time>2026-04-08T09:12:07.989Z</time></trkpt><trkpt lat="44.7474083" lon="10.2237433"><ele>120.0</ele><time>2026-04-08T09:12:08.989Z</time></trkpt><trkpt lat="44.7472917" lon="10.2237317"><ele>120.5</ele><time>2026-04-08T09:12:09.988Z</time></trkpt><trkpt lat="44.7471783" lon="10.223715"><ele>121.0</ele><time>2026-04-08T09:12:10.989Z</time></trkpt><trkpt lat="44.7470633" lon="10.223705"><ele>121.0</ele><time>2026-04-08T09:12:11.989Z</time></trkpt><trkpt lat="44.7469383" lon="10.22369"><ele>121.0</ele><time>2026-04-08T09:12:12.989Z</time></trkpt><trkpt lat="44.7468033" lon="10.2236733"><ele>121.0</ele><time>2026-04-08T09:12:13.989Z</time></trkpt><trkpt lat="44.746655" lon="10.2236517"><ele>121.0</ele><time>2026-04-08T09:12:14.989Z</time></trkpt><trkpt lat="44.746505" lon="10.2236417"><ele>121.0</ele><time>2026-04-08T09:12:15.988Z</time></trkpt><trkpt lat="44.7463567" lon="10.22364"><ele>121.0</ele><time>2026-04-08T09:12:16.989Z</time></trkpt><trkpt lat="44.7462133" lon="10.2236517"><ele>121.0</ele><time>2026-04-08T09:12:17.989Z</time></trkpt><trkpt lat="44.746075" lon="10.2236683"><ele>121.0</ele><time>2026-04-08T09:12:18.989Z</time></trkpt><trkpt lat="44.7459317" lon="10.22371"><ele>121.25</ele><time>2026-04-08T09:12:19.988Z</time></trkpt><trkpt lat="44.745785" lon="10.2237617"><ele>121.5</ele><time>2026-04-08T09:12:20.989Z</time></trkpt><trkpt lat="44.7456417" lon="10.2238217"><ele>121.75</ele><time>2026-04-08T09:12:21.988Z</time></trkpt><trkpt lat="44.7455033" lon="10.2238983"><ele>122.0</ele><time>2026-04-08T09:12:22.989Z</time></trkpt><trkpt lat="44.74537" lon="10.223985"><ele>122.0</ele><time>2026-04-08T09:12:23.989Z</time></trkpt><trkpt lat="44.7452417" lon="10.2240717"><ele>122.0</ele><time>2026-04-08T09:12:24.989Z</time></trkpt><trkpt lat="44.7451217" lon="10.2241567"><ele>122.0</ele><time>2026-04-08T09:12:25.989Z</time></trkpt><trkpt lat="44.74501" lon="10.2242383"><ele>122.0</ele><time>2026-04-08T09:12:26.988Z</time></trkpt><trkpt lat="44.74491" lon="10.2243083"><ele>122.19999999999999</ele><time>2026-04-08T09:12:27.989Z</time></trkpt><trkpt lat="44.7448117" lon="10.2243833"><ele>122.39999999999999</ele><time>2026-04-08T09:12:28.989Z</time></trkpt><trkpt lat="44.7447117" lon="10.2244533"><ele>122.60000000000001</ele><time>2026-04-08T09:12:29.988Z</time></trkpt><trkpt lat="44.7446283" lon="10.2245133"><ele>122.80000000000001</ele><time>2026-04-08T09:12:30.989Z</time></trkpt><trkpt lat="44.744555" lon="10.224565"><ele>123.0</ele><time>2026-04-08T09:12:31.989Z</time></trkpt><trkpt lat="44.744485" lon="10.2246233"><ele>123.0</ele><time>2026-04-08T09:12:32.989Z</time></trkpt><trkpt lat="44.7444067" lon="10.224675"><ele>123.00000000000001</ele><time>2026-04-08T09:12:33.989Z</time></trkpt><trkpt lat="44.74432" lon="10.22471"><ele>123.00000000000001</ele><time>2026-04-08T09:12:34.989Z</time></trkpt><trkpt lat="44.74423" lon="10.2247383"><ele>123.0</ele><time>2026-04-08T09:12:35.989Z</time></trkpt><trkpt lat="44.74414" lon="10.2247683"><ele>123.0</ele><time>2026-04-08T09:12:36.989Z</time></trkpt><trkpt lat="44.7440517" lon="10.2248167"><ele>123.2</ele><time>2026-04-08T09:12:37.989Z</time></trkpt><trkpt lat="44.7439567" lon="10.22485"><ele>123.4</ele><time>2026-04-08T09:12:38.989Z</time></trkpt><trkpt lat="44.7438583" lon="10.2248617"><ele>123.60000000000001</ele><time>2026-04-08T09:12:39.989Z</time></trkpt><trkpt lat="44.7437533" lon="10.22487"><ele>123.80000000000001</ele><time>2026-04-08T09:12:40.989Z</time></trkpt><trkpt lat="44.7436467" lon="10.2248717"><ele>124.0</ele><time>2026-04-08T09:12:41.989Z</time></trkpt><trkpt lat="44.7435417" lon="10.224875"><ele>124.0</ele><time>2026-04-08T09:12:42.989Z</time></trkpt><trkpt lat="44.7434317" lon="10.2248817"><ele>124.0</ele><time>2026-04-08T09:12:43.989Z</time></trkpt><trkpt lat="44.7433167" lon="10.2248867"><ele>124.0</ele><time>2026-04-08T09:12:44.989Z</time></trkpt><trkpt lat="44.7432067" lon="10.2248933"><ele>124.0</ele><time>2026-04-08T09:12:45.989Z</time></trkpt><trkpt lat="44.7431167" lon="10.2248983"><ele>124.0</ele><time>2026-04-08T09:12:46.988Z</time></trkpt><trkpt lat="44.7430417" lon="10.2249067"><ele>124.0</ele><time>2026-04-08T09:12:47.989Z</time></trkpt><trkpt lat="44.7429233" lon="10.224915"><ele>124.0</ele><time>2026-04-08T09:12:49.989Z</time></trkpt><trkpt lat="44.7428033" lon="10.22493"><ele>124.0</ele><time>2026-04-08T09:12:51.989Z</time></trkpt><trkpt lat="44.7427317" lon="10.2249367"><ele>124.0</ele><time>2026-04-08T09:12:52.989Z</time></trkpt><trkpt lat="44.74265" lon="10.22494"><ele>124.0</ele><time>2026-04-08T09:12:53.989Z</time></trkpt><trkpt lat="44.7425517" lon="10.2249433"><ele>124.5</ele><time>2026-04-08T09:12:54.989Z</time></trkpt><trkpt lat="44.74243" lon="10.2249517"><ele>125.0</ele><time>2026-04-08T09:12:55.989Z</time></trkpt><trkpt lat="44.7423067" lon="10.2249567"><ele>125.5</ele><time>2026-04-08T09:12:56.988Z</time></trkpt><trkpt lat="44.742185" lon="10.22496"><ele>126.0</ele><time>2026-04-08T09:12:57.989Z</time></trkpt><trkpt lat="44.7420633" lon="10.22497"><ele>126.0</ele><time>2026-04-08T09:12:58.989Z</time></trkpt><trkpt lat="44.7419333" lon="10.2249833"><ele>126.0</ele><time>2026-04-08T09:12:59.989Z</time></trkpt><trkpt lat="44.7417983" lon="10.224995"><ele>126.0</ele><time>2026-04-08T09:13:00.989Z</time></trkpt><trkpt lat="44.74165" lon="10.2250017"><ele>126.0</ele><time>2026-04-08T09:13:01.989Z</time></trkpt><trkpt lat="44.74149" lon="10.2250067"><ele>126.33333333333334</ele><time>2026-04-08T09:13:02.988Z</time></trkpt><trkpt lat="44.7413317" lon="10.225015"><ele>126.66666666666667</ele><time>2026-04-08T09:13:03.989Z</time></trkpt><trkpt lat="44.7411767" lon="10.225025"><ele>127.0</ele><time>2026-04-08T09:13:04.989Z</time></trkpt><trkpt lat="44.74103" lon="10.22503"><ele>127.25</ele><time>2026-04-08T09:13:05.989Z</time></trkpt><trkpt lat="44.7408867" lon="10.2250417"><ele>127.5</ele><time>2026-04-08T09:13:06.988Z</time></trkpt><trkpt lat="44.7407367" lon="10.2250517"><ele>127.75</ele><time>2026-04-08T09:13:07.988Z</time></trkpt><trkpt lat="44.7405833" lon="10.2250567"><ele>128.0</ele><time>2026-04-08T09:13:08.989Z</time></trkpt><trkpt lat="44.74043" lon="10.2250617"><ele>128.0</ele><time>2026-04-08T09:13:09.988Z</time></trkpt><trkpt lat="44.7402717" lon="10.2250767"><ele>128.0</ele><time>2026-04-08T09:13:10.989Z</time></trkpt><trkpt lat="44.7401" lon="10.22509"><ele>128.0</ele><time>2026-04-08T09:13:11.989Z</time></trkpt><trkpt lat="44.73992" lon="10.2251083"><ele>128.0</ele><time>2026-04-08T09:13:12.989Z</time></trkpt><trkpt lat="44.7397533" lon="10.225105"><ele>128.0</ele><time>2026-04-08T09:13:13.989Z</time></trkpt><trkpt lat="44.73958" lon="10.22511"><ele>128.0</ele><time>2026-04-08T09:13:14.989Z</time></trkpt><trkpt lat="44.7394017" lon="10.2251283"><ele>127.66666666666666</ele><time>2026-04-08T09:13:15.988Z</time></trkpt><trkpt lat="44.73922" lon="10.225135"><ele>127.33333333333334</ele><time>2026-04-08T09:13:16.989Z</time></trkpt><trkpt lat="44.739035" lon="10.2251417"><ele>127.0</ele><time>2026-04-08T09:13:17.989Z</time></trkpt><trkpt lat="44.7388667" lon="10.2251567"><ele>127.0</ele><time>2026-04-08T09:13:18.989Z</time></trkpt><trkpt lat="44.738705" lon="10.2251667"><ele>127.0</ele><time>2026-04-08T09:13:19.989Z</time></trkpt><trkpt lat="44.7385383" lon="10.225175"><ele>127.0</ele><time>2026-04-08T09:13:20.988Z</time></trkpt><trkpt lat="44.738365" lon="10.2251867"><ele>127.33333333333334</ele><time>2026-04-08T09:13:21.989Z</time></trkpt><trkpt lat="44.7381983" lon="10.2251917"><ele>127.66666666666666</ele><time>2026-04-08T09:13:22.989Z</time></trkpt><trkpt lat="44.7380383" lon="10.2251967"><ele>128.0</ele><time>2026-04-08T09:13:23.988Z</time></trkpt><trkpt lat="44.7378917" lon="10.2252033"><ele>128.0</ele><time>2026-04-08T09:13:24.989Z</time></trkpt><trkpt lat="44.73774" lon="10.2252183"><ele>128.0</ele><time>2026-04-08T09:13:25.989Z</time></trkpt><trkpt lat="44.737585" lon="10.2252283"><ele>128.0</ele><time>2026-04-08T09:13:26.988Z</time></trkpt><trkpt lat="44.7374233" lon="10.2252417"><ele>129.0</ele><time>2026-04-08T09:13:27.988Z</time></trkpt><trkpt lat="44.737245" lon="10.2252483"><ele>130.0</ele><time>2026-04-08T09:13:28.989Z</time></trkpt><trkpt lat="44.7370683" lon="10.225265"><ele>131.0</ele><time>2026-04-08T09:13:29.989Z</time></trkpt><trkpt lat="44.7368933" lon="10.2252883"><ele>131.33333333333331</ele><time>2026-04-08T09:13:30.989Z</time></trkpt><trkpt lat="44.73673" lon="10.2252917"><ele>131.66666666666666</ele><time>2026-04-08T09:13:31.988Z</time></trkpt><trkpt lat="44.736565" lon="10.2252967"><ele>132.0</ele><time>2026-04-08T09:13:32.989Z</time></trkpt><trkpt lat="44.7363983" lon="10.2253133"><ele>132.0</ele><time>2026-04-08T09:13:33.989Z</time></trkpt><trkpt lat="44.73622" lon="10.2253233"><ele>132.0</ele><time>2026-04-08T09:13:34.988Z</time></trkpt><trkpt lat="44.7360333" lon="10.2253367"><ele>132.0</ele><time>2026-04-08T09:13:35.988Z</time></trkpt><trkpt lat="44.7358483" lon="10.2253483"><ele>132.33333333333334</ele><time>2026-04-08T09:13:36.989Z</time></trkpt><trkpt lat="44.735675" lon="10.2253567"><ele>132.66666666666669</ele><time>2026-04-08T09:13:37.989Z</time></trkpt><trkpt lat="44.7355117" lon="10.2253717"><ele>133.0</ele><time>2026-04-08T09:13:38.989Z</time></trkpt><trkpt lat="44.7353567" lon="10.22538"><ele>133.25</ele><time>2026-04-08T09:13:39.989Z</time></trkpt><trkpt lat="44.7352117" lon="10.2253817"><ele>133.5</ele><time>2026-04-08T09:13:40.989Z</time></trkpt><trkpt lat="44.7350717" lon="10.225385"><ele>133.75</ele><time>2026-04-08T09:13:41.988Z</time></trkpt><trkpt lat="44.734935" lon="10.2253967"><ele>134.0</ele><time>2026-04-08T09:13:42.988Z</time></trkpt><trkpt lat="44.7347967" lon="10.2254083"><ele>134.0</ele><time>2026-04-08T09:13:43.988Z</time></trkpt><trkpt lat="44.7346483" lon="10.2254183"><ele>134.0</ele><time>2026-04-08T09:13:44.988Z</time></trkpt><trkpt lat="44.7344867" lon="10.2254283"><ele>134.0</ele><time>2026-04-08T09:13:45.989Z</time></trkpt><trkpt lat="44.73431" lon="10.2254417"><ele>134.0</ele><time>2026-04-08T09:13:46.988Z</time></trkpt><trkpt lat="44.7341133" lon="10.2254533"><ele>134.0</ele><time>2026-04-08T09:13:47.988Z</time></trkpt><trkpt lat="44.73392" lon="10.2254667"><ele>134.0</ele><time>2026-04-08T09:13:48.989Z</time></trkpt><trkpt lat="44.733735" lon="10.2254817"><ele>134.0</ele><time>2026-04-08T09:13:49.988Z</time></trkpt><trkpt lat="44.73356" lon="10.2254983"><ele>134.0</ele><time>2026-04-08T09:13:50.989Z</time></trkpt><trkpt lat="44.733385" lon="10.2255117"><ele>134.0</ele><time>2026-04-08T09:13:51.989Z</time></trkpt><trkpt lat="44.7332083" lon="10.2255233"><ele>135.0</ele><time>2026-04-08T09:13:52.988Z</time></trkpt><trkpt lat="44.7330267" lon="10.22554"><ele>136.0</ele><time>2026-04-08T09:13:53.989Z</time></trkpt><trkpt lat="44.7328483" lon="10.2255617"><ele>137.0</ele><time>2026-04-08T09:13:54.988Z</time></trkpt><trkpt lat="44.7326833" lon="10.225575"><ele>137.66666666666666</ele><time>2026-04-08T09:13:55.989Z</time></trkpt><trkpt lat="44.73252" lon="10.22559"><ele>138.33333333333334</ele><time>2026-04-08T09:13:56.989Z</time></trkpt><trkpt lat="44.7323583" lon="10.2256067"><ele>139.0</ele><time>2026-04-08T09:13:57.989Z</time></trkpt><trkpt lat="44.73219" lon="10.2256317"><ele>140.66666666666669</ele><time>2026-04-08T09:13:58.989Z</time></trkpt><trkpt lat="44.7320183" lon="10.2256567"><ele>142.33333333333334</ele><time>2026-04-08T09:13:59.988Z</time></trkpt><trkpt lat="44.73185" lon="10.2256867"><ele>144.0</ele><time>2026-04-08T09:14:00.989Z</time></trkpt><trkpt lat="44.731685" lon="10.2257367"><ele>144.33333333333334</ele><time>2026-04-08T09:14:01.989Z</time></trkpt><trkpt lat="44.7315233" lon="10.2258"><ele>144.66666666666669</ele><time>2026-04-08T09:14:02.988Z</time></trkpt><trkpt lat="44.7313617" lon="10.2258733"><ele>145.0</ele><time>2026-04-08T09:14:03.989Z</time></trkpt><trkpt lat="44.7312017" lon="10.2259533"><ele>144.66666666666669</ele><time>2026-04-08T09:14:04.989Z</time></trkpt><trkpt lat="44.7310433" lon="10.2260417"><ele>144.33333333333334</ele><time>2026-04-08T09:14:05.989Z</time></trkpt><trkpt lat="44.7308867" lon="10.2261167"><ele>144.0</ele><time>2026-04-08T09:14:06.988Z</time></trkpt><trkpt lat="44.7307317" lon="10.2261967"><ele>144.0</ele><time>2026-04-08T09:14:07.989Z</time></trkpt><trkpt lat="44.7305617" lon="10.2262633"><ele>144.0</ele><time>2026-04-08T09:14:08.989Z</time></trkpt><trkpt lat="44.7303883" lon="10.226315"><ele>144.0</ele><time>2026-04-08T09:14:09.988Z</time></trkpt><trkpt lat="44.7302233" lon="10.2263533"><ele>142.66666666666666</ele><time>2026-04-08T09:14:10.989Z</time></trkpt><trkpt lat="44.73007" lon="10.2263883"><ele>141.33333333333331</ele><time>2026-04-08T09:14:11.989Z</time></trkpt><trkpt lat="44.72992" lon="10.2264183"><ele>140.0</ele><time>2026-04-08T09:14:12.988Z</time></trkpt><trkpt lat="44.7297683" lon="10.2264433"><ele>140.0</ele><time>2026-04-08T09:14:13.988Z</time></trkpt><trkpt lat="44.729615" lon="10.2264733"><ele>140.0</ele><time>2026-04-08T09:14:14.989Z</time></trkpt><trkpt lat="44.7294667" lon="10.2265033"><ele>140.0</ele><time>2026-04-08T09:14:15.988Z</time></trkpt><trkpt lat="44.7293167" lon="10.2265267"><ele>141.33333333333331</ele><time>2026-04-08T09:14:16.988Z</time></trkpt><trkpt lat="44.7291683" lon="10.2265533"><ele>142.66666666666666</ele><time>2026-04-08T09:14:17.988Z</time></trkpt><trkpt lat="44.7290117" lon="10.2265817"><ele>144.0</ele><time>2026-04-08T09:14:18.989Z</time></trkpt><trkpt lat="44.7288583" lon="10.2266183"><ele>144.0</ele><time>2026-04-08T09:14:19.988Z</time></trkpt><trkpt lat="44.728705" lon="10.2266517"><ele>144.0</ele><time>2026-04-08T09:14:20.989Z</time></trkpt><trkpt lat="44.728555" lon="10.2266833"><ele>144.0</ele><time>2026-04-08T09:14:21.989Z</time></trkpt><trkpt lat="44.7284117" lon="10.226715"><ele>145.5</ele><time>2026-04-08T09:14:22.989Z</time></trkpt><trkpt lat="44.7282767" lon="10.2267383"><ele>147.0</ele><time>2026-04-08T09:14:23.989Z</time></trkpt><trkpt lat="44.7281517" lon="10.2267667"><ele>148.5</ele><time>2026-04-08T09:14:24.989Z</time></trkpt><trkpt lat="44.7280283" lon="10.2268017"><ele>150.0</ele><time>2026-04-08T09:14:25.988Z</time></trkpt><trkpt lat="44.7279117" lon="10.2268333"><ele>150.0</ele><time>2026-04-08T09:14:26.988Z</time></trkpt><trkpt lat="44.72779" lon="10.226865"><ele>150.0</ele><time>2026-04-08T09:14:27.988Z</time></trkpt><trkpt lat="44.7276633" lon="10.2268933"><ele>150.0</ele><time>2026-04-08T09:14:28.989Z</time></trkpt><trkpt lat="44.7275233" lon="10.2269267"><ele>150.0</ele><time>2026-04-08T09:14:29.988Z</time></trkpt><trkpt lat="44.7273567" lon="10.2269667"><ele>149.66666666666666</ele><time>2026-04-08T09:14:30.989Z</time></trkpt><trkpt lat="44.7271917" lon="10.2270067"><ele>149.33333333333331</ele><time>2026-04-08T09:14:31.988Z</time></trkpt><trkpt lat="44.7270333" lon="10.227045"><ele>149.0</ele><time>2026-04-08T09:14:32.989Z</time></trkpt><trkpt lat="44.7268783" lon="10.2270867"><ele>148.75</ele><time>2026-04-08T09:14:33.989Z</time></trkpt><trkpt lat="44.7267417" lon="10.227115"><ele>148.5</ele><time>2026-04-08T09:14:34.989Z</time></trkpt><trkpt lat="44.7266167" lon="10.227135"><ele>148.25</ele><time>2026-04-08T09:14:35.989Z</time></trkpt><trkpt lat="44.7265017" lon="10.2271667"><ele>148.0</ele><time>2026-04-08T09:14:36.988Z</time></trkpt><trkpt lat="44.7263933" lon="10.2271967"><ele>148.0</ele><time>2026-04-08T09:14:37.988Z</time></trkpt><trkpt lat="44.7263" lon="10.2272117"><ele>148.0</ele><time>2026-04-08T09:14:38.989Z</time></trkpt><trkpt lat="44.7262267" lon="10.22723"><ele>148.0</ele><time>2026-04-08T09:14:39.989Z</time></trkpt><trkpt lat="44.7261267" lon="10.2272633"><ele>148.0</ele><time>2026-04-08T09:14:41.989Z</time></trkpt><trkpt lat="44.7260233" lon="10.2273517"><ele>148.0</ele><time>2026-04-08T09:14:54.989Z</time></trkpt><trkpt lat="44.725995" lon="10.2275483"><ele>148.0</ele><time>2026-04-08T09:14:56.989Z</time></trkpt><trkpt lat="44.7260033" lon="10.227705"><ele>148.0</ele><time>2026-04-08T09:14:57.988Z</time></trkpt><trkpt lat="44.7260183" lon="10.2279"><ele>148.0</ele><time>2026-04-08T09:14:58.989Z</time></trkpt><trkpt lat="44.7260283" lon="10.2281167"><ele>148.0</ele><time>2026-04-08T09:14:59.989Z</time></trkpt><trkpt lat="44.7260433" lon="10.2283583"><ele>148.0</ele><time>2026-04-08T09:15:00.989Z</time></trkpt><trkpt lat="44.7260517" lon="10.2286017"><ele>148.0</ele><time>2026-04-08T09:15:01.989Z</time></trkpt><trkpt lat="44.7260633" lon="10.228825"><ele>148.0</ele><time>2026-04-08T09:15:02.989Z</time></trkpt><trkpt lat="44.72608" lon="10.2290333"><ele>147.0</ele><time>2026-04-08T09:15:03.989Z</time></trkpt><trkpt lat="44.7260917" lon="10.22923"><ele>146.0</ele><time>2026-04-08T09:15:04.988Z</time></trkpt><trkpt lat="44.7261" lon="10.22942"><ele>145.0</ele><time>2026-04-08T09:15:05.989Z</time></trkpt><trkpt lat="44.7261067" lon="10.229595"><ele>144.0</ele><time>2026-04-08T09:15:06.989Z</time></trkpt><trkpt lat="44.7261133" lon="10.22976"><ele>144.0</ele><time>2026-04-08T09:15:07.989Z</time></trkpt><trkpt lat="44.7261217" lon="10.2299133"><ele>144.0</ele><time>2026-04-08T09:15:08.988Z</time></trkpt><trkpt lat="44.7261333" lon="10.2300633"><ele>144.0</ele><time>2026-04-08T09:15:09.988Z</time></trkpt><trkpt lat="44.726145" lon="10.2302117"><ele>144.0</ele><time>2026-04-08T09:15:10.988Z</time></trkpt><trkpt lat="44.72615" lon="10.23036"><ele>144.0</ele><time>2026-04-08T09:15:11.988Z</time></trkpt><trkpt lat="44.72615" lon="10.2305017"><ele>144.25</ele><time>2026-04-08T09:15:12.988Z</time></trkpt><trkpt lat="44.72614" lon="10.23065"><ele>144.5</ele><time>2026-04-08T09:15:13.989Z</time></trkpt><trkpt lat="44.7261333" lon="10.23081"><ele>144.75</ele><time>2026-04-08T09:15:14.989Z</time></trkpt><trkpt lat="44.7261217" lon="10.23098"><ele>145.0</ele><time>2026-04-08T09:15:15.988Z</time></trkpt><trkpt lat="44.726095" lon="10.2311783"><ele>145.0</ele><time>2026-04-08T09:15:16.989Z</time></trkpt><trkpt lat="44.7260617" lon="10.2313967"><ele>145.0</ele><time>2026-04-08T09:15:17.988Z</time></trkpt><trkpt lat="44.7260283" lon="10.2316317"><ele>145.0</ele><time>2026-04-08T09:15:18.988Z</time></trkpt><trkpt lat="44.725995" lon="10.2318583"><ele>145.5</ele><time>2026-04-08T09:15:19.989Z</time></trkpt><trkpt lat="44.7259717" lon="10.232065"><ele>146.0</ele><time>2026-04-08T09:15:20.989Z</time></trkpt><trkpt lat="44.7259417" lon="10.2322617"><ele>146.5</ele><time>2026-04-08T09:15:21.988Z</time></trkpt><trkpt lat="44.7259167" lon="10.232465"><ele>147.0</ele><time>2026-04-08T09:15:22.989Z</time></trkpt><trkpt lat="44.72589" lon="10.2326583"><ele>147.25</ele><time>2026-04-08T09:15:23.989Z</time></trkpt><trkpt lat="44.7258667" lon="10.232845"><ele>147.5</ele><time>2026-04-08T09:15:24.989Z</time></trkpt><trkpt lat="44.7258433" lon="10.23301"><ele>147.75</ele><time>2026-04-08T09:15:25.988Z</time></trkpt><trkpt lat="44.725815" lon="10.23317"><ele>148.0</ele><time>2026-04-08T09:15:26.988Z</time></trkpt><trkpt lat="44.7257867" lon="10.2333283"><ele>148.0</ele><time>2026-04-08T09:15:27.989Z</time></trkpt><trkpt lat="44.725765" lon="10.2334933"><ele>148.0</ele><time>2026-04-08T09:15:28.988Z</time></trkpt><trkpt lat="44.7257433" lon="10.2336533"><ele>148.0</ele><time>2026-04-08T09:15:29.989Z</time></trkpt><trkpt lat="44.7257233" lon="10.2338017"><ele>148.0</ele><time>2026-04-08T09:15:30.988Z</time></trkpt><trkpt lat="44.725705" lon="10.2339467"><ele>148.0</ele><time>2026-04-08T09:15:31.989Z</time></trkpt><trkpt lat="44.7256833" lon="10.23409"><ele>148.0</ele><time>2026-04-08T09:15:32.989Z</time></trkpt><trkpt lat="44.7256683" lon="10.234225"><ele>148.0</ele><time>2026-04-08T09:15:33.989Z</time></trkpt><trkpt lat="44.72565" lon="10.234345"><ele>148.0</ele><time>2026-04-08T09:15:34.988Z</time></trkpt><trkpt lat="44.7256333" lon="10.2344483"><ele>148.0</ele><time>2026-04-08T09:15:35.989Z</time></trkpt><trkpt lat="44.7256033" lon="10.2346"><ele>148.0</ele><time>2026-04-08T09:15:37.989Z</time></trkpt><trkpt lat="44.725515" lon="10.234665"><ele>148.0</ele><time>2026-04-08T09:15:43.988Z</time></trkpt><trkpt lat="44.7254033" lon="10.2346417"><ele>148.0</ele><time>2026-04-08T09:15:45.989Z</time></trkpt><trkpt lat="44.7253167" lon="10.23462"><ele>148.0</ele><time>2026-04-08T09:15:46.988Z</time></trkpt><trkpt lat="44.72521" lon="10.2345917"><ele>148.0</ele><time>2026-04-08T09:15:47.989Z</time></trkpt><trkpt lat="44.725095" lon="10.23456"><ele>148.0</ele><time>2026-04-08T09:15:48.988Z</time></trkpt><trkpt lat="44.7249833" lon="10.2345217"><ele>148.0</ele><time>2026-04-08T09:15:49.989Z</time></trkpt><trkpt lat="44.7248667" lon="10.23448"><ele>148.0</ele><time>2026-04-08T09:15:50.989Z</time></trkpt><trkpt lat="44.7247467" lon="10.2344433"><ele>148.0</ele><time>2026-04-08T09:15:51.989Z</time></trkpt><trkpt lat="44.7246067" lon="10.2343983"><ele>148.0</ele><time>2026-04-08T09:15:52.989Z</time></trkpt><trkpt lat="44.724455" lon="10.2343583"><ele>148.33333333333334</ele><time>2026-04-08T09:15:53.989Z</time></trkpt><trkpt lat="44.7243" lon="10.23431"><ele>148.66666666666666</ele><time>2026-04-08T09:15:54.989Z</time></trkpt><trkpt lat="44.7241483" lon="10.2342683"><ele>149.0</ele><time>2026-04-08T09:15:55.989Z</time></trkpt><trkpt lat="44.72401" lon="10.2342283"><ele>149.0</ele><time>2026-04-08T09:15:56.989Z</time></trkpt><trkpt lat="44.7238767" lon="10.2341983"><ele>149.0</ele><time>2026-04-08T09:15:57.988Z</time></trkpt><trkpt lat="44.7237617" lon="10.2341667"><ele>149.0</ele><time>2026-04-08T09:15:58.989Z</time></trkpt><trkpt lat="44.7236533" lon="10.2341333"><ele>149.0</ele><time>2026-04-08T09:15:59.989Z</time></trkpt><trkpt lat="44.72355" lon="10.234105"><ele>149.6</ele><time>2026-04-08T09:16:00.989Z</time></trkpt><trkpt lat="44.72345" lon="10.2340767"><ele>150.2</ele><time>2026-04-08T09:16:01.988Z</time></trkpt><trkpt lat="44.7233533" lon="10.2340433"><ele>150.79999999999998</ele><time>2026-04-08T09:16:02.988Z</time></trkpt><trkpt lat="44.7232517" lon="10.23401"><ele>151.4</ele><time>2026-04-08T09:16:03.989Z</time></trkpt><trkpt lat="44.723145" lon="10.233975"><ele>152.0</ele><time>2026-04-08T09:16:04.989Z</time></trkpt><trkpt lat="44.7230383" lon="10.2339467"><ele>152.0</ele><time>2026-04-08T09:16:05.989Z</time></trkpt><trkpt lat="44.7229317" lon="10.23391"><ele>152.0</ele><time>2026-04-08T09:16:06.989Z</time></trkpt><trkpt lat="44.7228217" lon="10.2338783"><ele>152.0</ele><time>2026-04-08T09:16:07.988Z</time></trkpt><trkpt lat="44.722715" lon="10.2338417"><ele>152.0</ele><time>2026-04-08T09:16:08.988Z</time></trkpt><trkpt lat="44.722615" lon="10.23381"><ele>152.0</ele><time>2026-04-08T09:16:09.989Z</time></trkpt><trkpt lat="44.7225217" lon="10.23378"><ele>152.14285714285714</ele><time>2026-04-08T09:16:10.988Z</time></trkpt><trkpt lat="44.7224383" lon="10.2337533"><ele>152.2857142857143</ele><time>2026-04-08T09:16:11.989Z</time></trkpt><trkpt lat="44.722365" lon="10.2337233"><ele>152.42857142857144</ele><time>2026-04-08T09:16:12.989Z</time></trkpt><trkpt lat="44.7223" lon="10.2336967"><ele>152.57142857142856</ele><time>2026-04-08T09:16:13.989Z</time></trkpt><trkpt lat="44.72224" lon="10.2336683"><ele>152.71428571428572</ele><time>2026-04-08T09:16:14.988Z</time></trkpt><trkpt lat="44.722175" lon="10.2336417"><ele>152.85714285714286</ele><time>2026-04-08T09:16:15.989Z</time></trkpt><trkpt lat="44.7221067" lon="10.233595"><ele>153.0</ele><time>2026-04-08T09:16:16.988Z</time></trkpt><trkpt lat="44.7220467" lon="10.2335467"><ele>153.0</ele><time>2026-04-08T09:16:17.989Z</time></trkpt><trkpt lat="44.7219633" lon="10.2334433"><ele>153.0</ele><time>2026-04-08T09:16:19.989Z</time></trkpt><trkpt lat="44.72187" lon="10.2333517"><ele>153.0</ele><time>2026-04-08T09:16:21.989Z</time></trkpt><trkpt lat="44.721805" lon="10.2333383"><ele>153.0</ele><time>2026-04-08T09:16:22.989Z</time></trkpt><trkpt lat="44.7217333" lon="10.2333567"><ele>153.0</ele><time>2026-04-08T09:16:23.989Z</time></trkpt><trkpt lat="44.7216667" lon="10.2333967"><ele>153.0</ele><time>2026-04-08T09:16:24.989Z</time></trkpt><trkpt lat="44.72159" lon="10.2334217"><ele>153.0</ele><time>2026-04-08T09:16:25.988Z</time></trkpt><trkpt lat="44.72151" lon="10.2334417"><ele>153.0</ele><time>2026-04-08T09:16:26.989Z</time></trkpt><trkpt lat="44.7214317" lon="10.23344"><ele>153.0</ele><time>2026-04-08T09:16:27.988Z</time></trkpt><trkpt lat="44.721325" lon="10.23341"><ele>153.0</ele><time>2026-04-08T09:16:28.989Z</time></trkpt><trkpt lat="44.721185" lon="10.2333683"><ele>153.0</ele><time>2026-04-08T09:16:29.989Z</time></trkpt><trkpt lat="44.7210083" lon="10.2333267"><ele>154.0</ele><time>2026-04-08T09:16:30.988Z</time></trkpt><trkpt lat="44.72082" lon="10.2332717"><ele>155.0</ele><time>2026-04-08T09:16:31.989Z</time></trkpt><trkpt lat="44.72065" lon="10.2332167"><ele>156.0</ele><time>2026-04-08T09:16:32.989Z</time></trkpt><trkpt lat="44.72049" lon="10.2331717"><ele>156.0</ele><time>2026-04-08T09:16:33.989Z</time></trkpt><trkpt lat="44.720335" lon="10.23312"><ele>156.0</ele><time>2026-04-08T09:16:34.988Z</time></trkpt><trkpt lat="44.72019" lon="10.2330833"><ele>156.0</ele><time>2026-04-08T09:16:35.989Z</time></trkpt><trkpt lat="44.7200467" lon="10.2330317"><ele>156.25</ele><time>2026-04-08T09:16:36.989Z</time></trkpt><trkpt lat="44.7199" lon="10.2329917"><ele>156.5</ele><time>2026-04-08T09:16:37.989Z</time></trkpt><trkpt lat="44.7197517" lon="10.2329483"><ele>156.75</ele><time>2026-04-08T09:16:38.989Z</time></trkpt><trkpt lat="44.7196067" lon="10.232905"><ele>157.0</ele><time>2026-04-08T09:16:39.988Z</time></trkpt><trkpt lat="44.7194617" lon="10.23288"><ele>157.0</ele><time>2026-04-08T09:16:40.989Z</time></trkpt><trkpt lat="44.719335" lon="10.2328267"><ele>157.0</ele><time>2026-04-08T09:16:41.989Z</time></trkpt><trkpt lat="44.7192117" lon="10.2327817"><ele>157.0</ele><time>2026-04-08T09:16:42.988Z</time></trkpt><trkpt lat="44.7190883" lon="10.232745"><ele>157.0</ele><time>2026-04-08T09:16:43.988Z</time></trkpt><trkpt lat="44.7189683" lon="10.2327167"><ele>157.0</ele><time>2026-04-08T09:16:44.988Z</time></trkpt><trkpt lat="44.7188533" lon="10.2326783"><ele>157.0</ele><time>2026-04-08T09:16:45.988Z</time></trkpt><trkpt lat="44.7187483" lon="10.2326333"><ele>157.0</ele><time>2026-04-08T09:16:46.989Z</time></trkpt><trkpt lat="44.7186433" lon="10.2326067"><ele>157.0</ele><time>2026-04-08T09:16:47.989Z</time></trkpt><trkpt lat="44.7185433" lon="10.23257"><ele>157.0</ele><time>2026-04-08T09:16:48.989Z</time></trkpt><trkpt lat="44.71844" lon="10.2325417"><ele>157.25</ele><time>2026-04-08T09:16:49.989Z</time></trkpt><trkpt lat="44.71833" lon="10.2325033"><ele>157.5</ele><time>2026-04-08T09:16:50.989Z</time></trkpt><trkpt lat="44.7182233" lon="10.2324717"><ele>157.75</ele><time>2026-04-08T09:16:51.988Z</time></trkpt><trkpt lat="44.718105" lon="10.2324517"><ele>158.0</ele><time>2026-04-08T09:16:52.988Z</time></trkpt><trkpt lat="44.7179917" lon="10.232415"><ele>158.0</ele><time>2026-04-08T09:16:53.989Z</time></trkpt><trkpt lat="44.717875" lon="10.2323717"><ele>158.0</ele><time>2026-04-08T09:16:54.989Z</time></trkpt><trkpt lat="44.7177567" lon="10.232325"><ele>158.0</ele><time>2026-04-08T09:16:55.988Z</time></trkpt><trkpt lat="44.71763" lon="10.2322883"><ele>158.0</ele><time>2026-04-08T09:16:56.989Z</time></trkpt><trkpt lat="44.7174967" lon="10.2322483"><ele>158.25</ele><time>2026-04-08T09:16:57.989Z</time></trkpt><trkpt lat="44.717375" lon="10.2322083"><ele>158.5</ele><time>2026-04-08T09:16:58.989Z</time></trkpt><trkpt lat="44.7172583" lon="10.23217"><ele>158.75</ele><time>2026-04-08T09:16:59.989Z</time></trkpt><trkpt lat="44.717145" lon="10.232135"><ele>159.0</ele><time>2026-04-08T09:17:00.988Z</time></trkpt><trkpt lat="44.7170267" lon="10.2320983"><ele>159.0</ele><time>2026-04-08T09:17:01.988Z</time></trkpt><trkpt lat="44.7169167" lon="10.2320617"><ele>159.0</ele><time>2026-04-08T09:17:02.989Z</time></trkpt><trkpt lat="44.716805" lon="10.2320333"><ele>159.0</ele><time>2026-04-08T09:17:03.988Z</time></trkpt><trkpt lat="44.7166967" lon="10.2319967"><ele>159.0</ele><time>2026-04-08T09:17:04.989Z</time></trkpt><trkpt lat="44.7165967" lon="10.2319617"><ele>159.0</ele><time>2026-04-08T09:17:05.989Z</time></trkpt><trkpt lat="44.7165" lon="10.2319283"><ele>159.6</ele><time>2026-04-08T09:17:06.989Z</time></trkpt><trkpt lat="44.7164083" lon="10.2319"><ele>160.2</ele><time>2026-04-08T09:17:07.989Z</time></trkpt><trkpt lat="44.7163167" lon="10.23187"><ele>160.79999999999998</ele><time>2026-04-08T09:17:08.988Z</time></trkpt><trkpt lat="44.716225" lon="10.2318433"><ele>161.4</ele><time>2026-04-08T09:17:09.989Z</time></trkpt><trkpt lat="44.716135" lon="10.23182"><ele>162.0</ele><time>2026-04-08T09:17:10.988Z</time></trkpt><trkpt lat="44.716055" lon="10.2317983"><ele>162.2</ele><time>2026-04-08T09:17:11.988Z</time></trkpt><trkpt lat="44.71598" lon="10.2317783"><ele>162.39999999999998</ele><time>2026-04-08T09:17:12.989Z</time></trkpt><trkpt lat="44.7159167" lon="10.231755"><ele>162.60000000000002</ele><time>2026-04-08T09:17:13.989Z</time></trkpt><trkpt lat="44.71582" lon="10.231705"><ele>162.8</ele><time>2026-04-08T09:17:15.989Z</time></trkpt><trkpt lat="44.7157967" lon="10.2315867"><ele>163.0</ele><time>2026-04-08T09:17:17.989Z</time></trkpt><trkpt lat="44.715815" lon="10.231405"><ele>163.4</ele><time>2026-04-08T09:17:19.988Z</time></trkpt><trkpt lat="44.7158333" lon="10.23129"><ele>163.8</ele><time>2026-04-08T09:17:20.988Z</time></trkpt><trkpt lat="44.7158517" lon="10.2311583"><ele>164.2</ele><time>2026-04-08T09:17:21.989Z</time></trkpt><trkpt lat="44.7158733" lon="10.2309883"><ele>164.6</ele><time>2026-04-08T09:17:22.989Z</time></trkpt><trkpt lat="44.7159117" lon="10.23079"><ele>165.0</ele><time>2026-04-08T09:17:23.988Z</time></trkpt><trkpt lat="44.7159567" lon="10.23055"><ele>165.25</ele><time>2026-04-08T09:17:24.988Z</time></trkpt><trkpt lat="44.715995" lon="10.230335"><ele>165.5</ele><time>2026-04-08T09:17:25.988Z</time></trkpt><trkpt lat="44.716035" lon="10.23013"><ele>165.75</ele><time>2026-04-08T09:17:26.988Z</time></trkpt><trkpt lat="44.7160633" lon="10.2299483"><ele>166.0</ele><time>2026-04-08T09:17:27.989Z</time></trkpt><trkpt lat="44.71609" lon="10.2297833"><ele>167.4</ele><time>2026-04-08T09:17:28.989Z</time></trkpt><trkpt lat="44.7161133" lon="10.2296267"><ele>168.8</ele><time>2026-04-08T09:17:29.988Z</time></trkpt><trkpt lat="44.7161383" lon="10.2294783"><ele>170.20000000000002</ele><time>2026-04-08T09:17:30.988Z</time></trkpt><trkpt lat="44.71616" lon="10.2293433"><ele>171.60000000000002</ele><time>2026-04-08T09:17:31.989Z</time></trkpt><trkpt lat="44.71618" lon="10.2292067"><ele>173.0</ele><time>2026-04-08T09:17:32.989Z</time></trkpt><trkpt lat="44.7162033" lon="10.2290617"><ele>172.8</ele><time>2026-04-08T09:17:33.989Z</time></trkpt><trkpt lat="44.7162267" lon="10.22892"><ele>172.60000000000002</ele><time>2026-04-08T09:17:34.989Z</time></trkpt><trkpt lat="44.7162483" lon="10.2287883"><ele>172.39999999999998</ele><time>2026-04-08T09:17:35.989Z</time></trkpt><trkpt lat="44.7162667" lon="10.2286617"><ele>172.2</ele><time>2026-04-08T09:17:36.988Z</time></trkpt><trkpt lat="44.7162817" lon="10.228545"><ele>172.0</ele><time>2026-04-08T09:17:37.989Z</time></trkpt><trkpt lat="44.7162983" lon="10.228425"><ele>172.0</ele><time>2026-04-08T09:17:38.989Z</time></trkpt><trkpt lat="44.71632" lon="10.2282967"><ele>172.0</ele><time>2026-04-08T09:17:39.989Z</time></trkpt><trkpt lat="44.7163483" lon="10.2281533"><ele>172.0</ele><time>2026-04-08T09:17:40.989Z</time></trkpt><trkpt lat="44.716375" lon="10.2280033"><ele>172.0</ele><time>2026-04-08T09:17:41.988Z</time></trkpt><trkpt lat="44.7164033" lon="10.2278483"><ele>172.0</ele><time>2026-04-08T09:17:42.989Z</time></trkpt><trkpt lat="44.7164233" lon="10.22773"><ele>171.66666666666669</ele><time>2026-04-08T09:17:43.989Z</time></trkpt><trkpt lat="44.71644" lon="10.2276233"><ele>171.33333333333334</ele><time>2026-04-08T09:17:44.988Z</time></trkpt><trkpt lat="44.7164567" lon="10.2275333"><ele>171.0</ele><time>2026-04-08T09:17:45.989Z</time></trkpt><trkpt lat="44.71648" lon="10.2273817"><ele>170.66666666666666</ele><time>2026-04-08T09:17:47.989Z</time></trkpt><trkpt lat="44.7165017" lon="10.2272267"><ele>170.33333333333331</ele><time>2026-04-08T09:17:49.989Z</time></trkpt><trkpt lat="44.7165183" lon="10.2271333"><ele>170.0</ele><time>2026-04-08T09:17:50.989Z</time></trkpt><trkpt lat="44.716535" lon="10.227035"><ele>169.66666666666666</ele><time>2026-04-08T09:17:51.989Z</time></trkpt><trkpt lat="44.7165517" lon="10.226935"><ele>169.33333333333331</ele><time>2026-04-08T09:17:52.989Z</time></trkpt><trkpt lat="44.7165667" lon="10.226845"><ele>169.0</ele><time>2026-04-08T09:17:53.988Z</time></trkpt><trkpt lat="44.71658" lon="10.226755"><ele>168.66666666666666</ele><time>2026-04-08T09:17:54.989Z</time></trkpt><trkpt lat="44.7166117" lon="10.2265833"><ele>168.33333333333334</ele><time>2026-04-08T09:17:56.989Z</time></trkpt><trkpt lat="44.7166283" lon="10.2264917"><ele>168.0</ele><time>2026-04-08T09:17:57.989Z</time></trkpt><trkpt lat="44.7166583" lon="10.2263317"><ele>167.8</ele><time>2026-04-08T09:17:59.989Z</time></trkpt><trkpt lat="44.716715" lon="10.2262117"><ele>167.60000000000002</ele><time>2026-04-08T09:18:01.989Z</time></trkpt><trkpt lat="44.71678" lon="10.2261067"><ele>167.39999999999998</ele><time>2026-04-08T09:18:03.989Z</time></trkpt><trkpt lat="44.7168167" lon="10.2259517"><ele>167.2</ele><time>2026-04-08T09:18:05.989Z</time></trkpt><trkpt lat="44.7167783" lon="10.2258"><ele>167.0</ele><time>2026-04-08T09:18:07.989Z</time></trkpt><trkpt lat="44.716675" lon="10.2257333"><ele>167.0</ele><time>2026-04-08T09:18:09.988Z</time></trkpt><trkpt lat="44.7166083" lon="10.2257367"><ele>167.0</ele><time>2026-04-08T09:18:10.988Z</time></trkpt><trkpt lat="44.716525" lon="10.2257517"><ele>167.0</ele><time>2026-04-08T09:18:11.989Z</time></trkpt><trkpt lat="44.7164367" lon="10.2257533"><ele>167.0</ele><time>2026-04-08T09:18:12.989Z</time></trkpt><trkpt lat="44.7163483" lon="10.22573"><ele>167.0</ele><time>2026-04-08T09:18:13.989Z</time></trkpt><trkpt lat="44.71625" lon="10.225705"><ele>167.0</ele><time>2026-04-08T09:18:14.988Z</time></trkpt><trkpt lat="44.7161367" lon="10.22567"><ele>167.0</ele><time>2026-04-08T09:18:15.989Z</time></trkpt><trkpt lat="44.7160083" lon="10.22563"><ele>167.0</ele><time>2026-04-08T09:18:16.989Z</time></trkpt><trkpt lat="44.7158633" lon="10.225585"><ele>167.0</ele><time>2026-04-08T09:18:17.989Z</time></trkpt><trkpt lat="44.71572" lon="10.2255383"><ele>167.0</ele><time>2026-04-08T09:18:18.988Z</time></trkpt><trkpt lat="44.715585" lon="10.2254933"><ele>167.0</ele><time>2026-04-08T09:18:19.989Z</time></trkpt><trkpt lat="44.7154567" lon="10.22545"><ele>167.0</ele><time>2026-04-08T09:18:20.989Z</time></trkpt><trkpt lat="44.7153367" lon="10.225415"><ele>167.0</ele><time>2026-04-08T09:18:21.989Z</time></trkpt><trkpt lat="44.7152233" lon="10.2253917"><ele>167.0</ele><time>2026-04-08T09:18:22.989Z</time></trkpt><trkpt lat="44.7151217" lon="10.2253667"><ele>167.6</ele><time>2026-04-08T09:18:23.989Z</time></trkpt><trkpt lat="44.7150217" lon="10.2253317"><ele>168.2</ele><time>2026-04-08T09:18:24.989Z</time></trkpt><trkpt lat="44.714915" lon="10.2253"><ele>168.8</ele><time>2026-04-08T09:18:25.989Z</time></trkpt><trkpt lat="44.7148117" lon="10.2252683"><ele>169.4</ele><time>2026-04-08T09:18:26.988Z</time></trkpt><trkpt lat="44.7147067" lon="10.2252383"><ele>170.0</ele><time>2026-04-08T09:18:27.989Z</time></trkpt><trkpt lat="44.714605" lon="10.2252133"><ele>170.0</ele><time>2026-04-08T09:18:28.989Z</time></trkpt><trkpt lat="44.71451" lon="10.22519"><ele>170.0</ele><time>2026-04-08T09:18:29.989Z</time></trkpt><trkpt lat="44.7144267" lon="10.2251633"><ele>170.0</ele><time>2026-04-08T09:18:30.989Z</time></trkpt><trkpt lat="44.7143517" lon="10.22513"><ele>170.0</ele><time>2026-04-08T09:18:31.988Z</time></trkpt><trkpt lat="44.714285" lon="10.225105"><ele>170.0</ele><time>2026-04-08T09:18:32.988Z</time></trkpt><trkpt lat="44.714215" lon="10.2250933"><ele>170.0</ele><time>2026-04-08T09:18:33.989Z</time></trkpt><trkpt lat="44.7141367" lon="10.2250783"><ele>171.0</ele><time>2026-04-08T09:18:34.988Z</time></trkpt><trkpt lat="44.7140367" lon="10.2250733"><ele>172.0</ele><time>2026-04-08T09:18:35.989Z</time></trkpt><trkpt lat="44.71393" lon="10.2250567"><ele>173.0</ele><time>2026-04-08T09:18:36.988Z</time></trkpt><trkpt lat="44.7138083" lon="10.2250317"><ele>174.0</ele><time>2026-04-08T09:18:37.989Z</time></trkpt><trkpt lat="44.713675" lon="10.2250167"><ele>174.33333333333334</ele><time>2026-04-08T09:18:38.989Z</time></trkpt><trkpt lat="44.7135383" lon="10.22499"><ele>174.66666666666669</ele><time>2026-04-08T09:18:39.988Z</time></trkpt><trkpt lat="44.713385" lon="10.2249567"><ele>175.0</ele><time>2026-04-08T09:18:40.989Z</time></trkpt><trkpt lat="44.7132233" lon="10.22493"><ele>175.0</ele><time>2026-04-08T09:18:41.989Z</time></trkpt><trkpt lat="44.7130467" lon="10.2249083"><ele>175.0</ele><time>2026-04-08T09:18:42.989Z</time></trkpt><trkpt lat="44.7128683" lon="10.2248883"><ele>175.0</ele><time>2026-04-08T09:18:43.989Z</time></trkpt><trkpt lat="44.7126917" lon="10.2248583"><ele>174.66666666666669</ele><time>2026-04-08T09:18:44.989Z</time></trkpt><trkpt lat="44.7125033" lon="10.224845"><ele>174.33333333333334</ele><time>2026-04-08T09:18:45.988Z</time></trkpt><trkpt lat="44.7123133" lon="10.2248233"><ele>174.0</ele><time>2026-04-08T09:18:46.989Z</time></trkpt><trkpt lat="44.7121233" lon="10.2248"><ele>174.66666666666666</ele><time>2026-04-08T09:18:47.989Z</time></trkpt><trkpt lat="44.7119383" lon="10.2247767"><ele>175.33333333333331</ele><time>2026-04-08T09:18:48.989Z</time></trkpt><trkpt lat="44.7117533" lon="10.2247567"><ele>176.0</ele><time>2026-04-08T09:18:49.988Z</time></trkpt><trkpt lat="44.7115767" lon="10.2247367"><ele>176.33333333333331</ele><time>2026-04-08T09:18:50.989Z</time></trkpt><trkpt lat="44.7114133" lon="10.2247117"><ele>176.66666666666666</ele><time>2026-04-08T09:18:51.989Z</time></trkpt><trkpt lat="44.7112483" lon="10.2246967"><ele>177.0</ele><time>2026-04-08T09:18:52.988Z</time></trkpt><trkpt lat="44.7110867" lon="10.2246767"><ele>177.25</ele><time>2026-04-08T09:18:53.989Z</time></trkpt><trkpt lat="44.7109333" lon="10.22466"><ele>177.5</ele><time>2026-04-08T09:18:54.988Z</time></trkpt><trkpt lat="44.7107883" lon="10.2246433"><ele>177.75</ele><time>2026-04-08T09:18:55.989Z</time></trkpt><trkpt lat="44.7106533" lon="10.2246283"><ele>178.0</ele><time>2026-04-08T09:18:56.989Z</time></trkpt><trkpt lat="44.7105283" lon="10.22461"><ele>178.0</ele><time>2026-04-08T09:18:57.989Z</time></trkpt><trkpt lat="44.7104133" lon="10.2245967"><ele>178.0</ele><time>2026-04-08T09:18:58.989Z</time></trkpt><trkpt lat="44.7103033" lon="10.224575"><ele>178.0</ele><time>2026-04-08T09:18:59.988Z</time></trkpt><trkpt lat="44.7101917" lon="10.22456"><ele>178.0</ele><time>2026-04-08T09:19:00.988Z</time></trkpt><trkpt lat="44.7100783" lon="10.2245433"><ele>178.0</ele><time>2026-04-08T09:19:01.989Z</time></trkpt><trkpt lat="44.7099683" lon="10.2245283"><ele>178.0</ele><time>2026-04-08T09:19:02.988Z</time></trkpt><trkpt lat="44.7098583" lon="10.2245133"><ele>178.0</ele><time>2026-04-08T09:19:03.989Z</time></trkpt><trkpt lat="44.7097433" lon="10.2244967"><ele>178.0</ele><time>2026-04-08T09:19:04.989Z</time></trkpt><trkpt lat="44.7096233" lon="10.22448"><ele>178.0</ele><time>2026-04-08T09:19:05.989Z</time></trkpt><trkpt lat="44.7094967" lon="10.2244617"><ele>178.0</ele><time>2026-04-08T09:19:06.989Z</time></trkpt><trkpt lat="44.7093633" lon="10.2244467"><ele>178.0</ele><time>2026-04-08T09:19:07.989Z</time></trkpt><trkpt lat="44.709225" lon="10.2244283"><ele>178.0</ele><time>2026-04-08T09:19:08.989Z</time></trkpt><trkpt lat="44.7090833" lon="10.22441"><ele>178.33333333333334</ele><time>2026-04-08T09:19:09.988Z</time></trkpt><trkpt lat="44.7089317" lon="10.2243883"><ele>178.66666666666666</ele><time>2026-04-08T09:19:10.989Z</time></trkpt><trkpt lat="44.70878" lon="10.2243583"><ele>179.0</ele><time>2026-04-08T09:19:11.989Z</time></trkpt><trkpt lat="44.7086267" lon="10.22433"><ele>179.33333333333331</ele><time>2026-04-08T09:19:12.989Z</time></trkpt><trkpt lat="44.7084683" lon="10.2243083"><ele>179.66666666666666</ele><time>2026-04-08T09:19:13.989Z</time></trkpt><trkpt lat="44.7083267" lon="10.2242883"><ele>180.0</ele><time>2026-04-08T09:19:14.989Z</time></trkpt><trkpt lat="44.7081683" lon="10.2242617"><ele>180.0</ele><time>2026-04-08T09:19:15.988Z</time></trkpt><trkpt lat="44.70801" lon="10.2242367"><ele>180.0</ele><time>2026-04-08T09:19:16.989Z</time></trkpt><trkpt lat="44.707865" lon="10.2242167"><ele>180.0</ele><time>2026-04-08T09:19:17.988Z</time></trkpt><trkpt lat="44.70774" lon="10.22421"><ele>180.0</ele><time>2026-04-08T09:19:18.988Z</time></trkpt><trkpt lat="44.7076183" lon="10.2241933"><ele>181.0</ele><time>2026-04-08T09:19:19.989Z</time></trkpt><trkpt lat="44.7075017" lon="10.2241767"><ele>182.0</ele><time>2026-04-08T09:19:20.989Z</time></trkpt><trkpt lat="44.7073817" lon="10.2241583"><ele>183.0</ele><time>2026-04-08T09:19:21.989Z</time></trkpt><trkpt lat="44.707265" lon="10.2241433"><ele>184.0</ele><time>2026-04-08T09:19:22.988Z</time></trkpt><trkpt lat="44.7071467" lon="10.2241283"><ele>184.0</ele><time>2026-04-08T09:19:23.989Z</time></trkpt><trkpt lat="44.7070167" lon="10.2241183"><ele>184.0</ele><time>2026-04-08T09:19:24.989Z</time></trkpt><trkpt lat="44.7068983" lon="10.2241017"><ele>184.0</ele><time>2026-04-08T09:19:25.989Z</time></trkpt><trkpt lat="44.7067717" lon="10.2240867"><ele>184.0</ele><time>2026-04-08T09:19:26.989Z</time></trkpt><trkpt lat="44.70666" lon="10.224065"><ele>185.5</ele><time>2026-04-08T09:19:27.989Z</time></trkpt><trkpt lat="44.7065233" lon="10.2240567"><ele>187.0</ele><time>2026-04-08T09:19:28.989Z</time></trkpt><trkpt lat="44.7063883" lon="10.2240383"><ele>188.5</ele><time>2026-04-08T09:19:29.989Z</time></trkpt><trkpt lat="44.7062567" lon="10.22402"><ele>190.0</ele><time>2026-04-08T09:19:30.989Z</time></trkpt><trkpt lat="44.7061183" lon="10.224"><ele>190.66666666666669</ele><time>2026-04-08T09:19:31.989Z</time></trkpt><trkpt lat="44.7059817" lon="10.2239733"><ele>191.33333333333334</ele><time>2026-04-08T09:19:32.988Z</time></trkpt><trkpt lat="44.705825" lon="10.2239583"><ele>192.0</ele><time>2026-04-08T09:19:33.988Z</time></trkpt><trkpt lat="44.705665" lon="10.22394"><ele>192.0</ele><time>2026-04-08T09:19:34.988Z</time></trkpt><trkpt lat="44.7054967" lon="10.2239367"><ele>192.0</ele><time>2026-04-08T09:19:35.989Z</time></trkpt><trkpt lat="44.7053367" lon="10.2239183"><ele>192.0</ele><time>2026-04-08T09:19:36.988Z</time></trkpt><trkpt lat="44.7051817" lon="10.2239083"><ele>193.33333333333331</ele><time>2026-04-08T09:19:37.989Z</time></trkpt><trkpt lat="44.70502" lon="10.2239067"><ele>194.66666666666666</ele><time>2026-04-08T09:19:38.988Z</time></trkpt><trkpt lat="44.70487" lon="10.2238917"><ele>196.0</ele><time>2026-04-08T09:19:39.989Z</time></trkpt><trkpt lat="44.7047317" lon="10.223895"><ele>196.0</ele><time>2026-04-08T09:19:40.989Z</time></trkpt><trkpt lat="44.7045883" lon="10.22389"><ele>196.0</ele><time>2026-04-08T09:19:41.989Z</time></trkpt><trkpt lat="44.70445" lon="10.2238867"><ele>196.0</ele><time>2026-04-08T09:19:42.989Z</time></trkpt><trkpt lat="44.7043183" lon="10.2238567"><ele>196.0</ele><time>2026-04-08T09:19:43.989Z</time></trkpt><trkpt lat="44.7041867" lon="10.223795"><ele>197.0</ele><time>2026-04-08T09:19:44.989Z</time></trkpt><trkpt lat="44.7040517" lon="10.22371"><ele>198.0</ele><time>2026-04-08T09:19:45.988Z</time></trkpt><trkpt lat="44.7039033" lon="10.223605"><ele>199.0</ele><time>2026-04-08T09:19:46.988Z</time></trkpt><trkpt lat="44.703755" lon="10.2234933"><ele>199.0</ele><time>2026-04-08T09:19:47.988Z</time></trkpt><trkpt lat="44.7036067" lon="10.22338"><ele>199.0</ele><time>2026-04-08T09:19:48.989Z</time></trkpt><trkpt lat="44.7034533" lon="10.22328"><ele>199.0</ele><time>2026-04-08T09:19:49.989Z</time></trkpt><trkpt lat="44.7033117" lon="10.2231783"><ele>197.66666666666666</ele><time>2026-04-08T09:19:50.988Z</time></trkpt><trkpt lat="44.7031717" lon="10.22308"><ele>196.33333333333331</ele><time>2026-04-08T09:19:51.988Z</time></trkpt><trkpt lat="44.703025" lon="10.2229817"><ele>195.0</ele><time>2026-04-08T09:19:52.988Z</time></trkpt><trkpt lat="44.7028667" lon="10.2228817"><ele>193.66666666666666</ele><time>2026-04-08T09:19:53.989Z</time></trkpt><trkpt lat="44.702725" lon="10.2227867"><ele>192.33333333333331</ele><time>2026-04-08T09:19:54.988Z</time></trkpt><trkpt lat="44.70259" lon="10.2226933"><ele>191.0</ele><time>2026-04-08T09:19:55.989Z</time></trkpt><trkpt lat="44.7024533" lon="10.2226133"><ele>191.0</ele><time>2026-04-08T09:19:56.989Z</time></trkpt><trkpt lat="44.702305" lon="10.22255"><ele>191.0</ele><time>2026-04-08T09:19:57.989Z</time></trkpt><trkpt lat="44.7021533" lon="10.2224933"><ele>191.0</ele><time>2026-04-08T09:19:58.989Z</time></trkpt><trkpt lat="44.702005" lon="10.22244"><ele>191.66666666666666</ele><time>2026-04-08T09:19:59.989Z</time></trkpt><trkpt lat="44.7018517" lon="10.2223883"><ele>192.33333333333331</ele><time>2026-04-08T09:20:00.989Z</time></trkpt><trkpt lat="44.7016983" lon="10.2223417"><ele>193.0</ele><time>2026-04-08T09:20:01.989Z</time></trkpt><trkpt lat="44.701545" lon="10.2223017"><ele>193.0</ele><time>2026-04-08T09:20:02.989Z</time></trkpt><trkpt lat="44.7014017" lon="10.2222583"><ele>193.0</ele><time>2026-04-08T09:20:03.989Z</time></trkpt><trkpt lat="44.7012667" lon="10.2222167"><ele>193.0</ele><time>2026-04-08T09:20:04.988Z</time></trkpt><trkpt lat="44.7011483" lon="10.2221833"><ele>193.0</ele><time>2026-04-08T09:20:05.989Z</time></trkpt><trkpt lat="44.7010517" lon="10.2221583"><ele>192.66666666666666</ele><time>2026-04-08T09:20:06.989Z</time></trkpt><trkpt lat="44.7009733" lon="10.2221383"><ele>192.33333333333331</ele><time>2026-04-08T09:20:07.989Z</time></trkpt><trkpt lat="44.700905" lon="10.2221283"><ele>192.0</ele><time>2026-04-08T09:20:08.988Z</time></trkpt><trkpt lat="44.70081" lon="10.2221067"><ele>191.66666666666666</ele><time>2026-04-08T09:20:10.989Z</time></trkpt><trkpt lat="44.700765" lon="10.22202"><ele>191.33333333333331</ele><time>2026-04-08T09:20:12.989Z</time></trkpt><trkpt lat="44.7007883" lon="10.2218733"><ele>191.0</ele><time>2026-04-08T09:20:14.988Z</time></trkpt><trkpt lat="44.70081" lon="10.2217767"><ele>191.0</ele><time>2026-04-08T09:20:15.989Z</time></trkpt><trkpt lat="44.700835" lon="10.2216717"><ele>191.0</ele><time>2026-04-08T09:20:16.989Z</time></trkpt><trkpt lat="44.70087" lon="10.22155"><ele>191.0</ele><time>2026-04-08T09:20:17.988Z</time></trkpt><trkpt lat="44.700905" lon="10.2214267"><ele>191.0</ele><time>2026-04-08T09:20:18.988Z</time></trkpt><trkpt lat="44.70094" lon="10.2212967"><ele>191.0</ele><time>2026-04-08T09:20:19.989Z</time></trkpt><trkpt lat="44.7009783" lon="10.2211467"><ele>192.4</ele><time>2026-04-08T09:20:20.988Z</time></trkpt><trkpt lat="44.7010217" lon="10.2209917"><ele>193.8</ele><time>2026-04-08T09:20:21.989Z</time></trkpt><trkpt lat="44.70107" lon="10.2208433"><ele>195.20000000000002</ele><time>2026-04-08T09:20:22.989Z</time></trkpt><trkpt lat="44.7011117" lon="10.2207"><ele>196.60000000000002</ele><time>2026-04-08T09:20:23.989Z</time></trkpt><trkpt lat="44.70116" lon="10.2205733"><ele>198.0</ele><time>2026-04-08T09:20:24.988Z</time></trkpt><trkpt lat="44.7012" lon="10.22045"><ele>198.83333333333334</ele><time>2026-04-08T09:20:25.989Z</time></trkpt><trkpt lat="44.7012317" lon="10.2203233"><ele>199.66666666666669</ele><time>2026-04-08T09:20:26.989Z</time></trkpt><trkpt lat="44.7012633" lon="10.2201933"><ele>200.5</ele><time>2026-04-08T09:20:27.989Z</time></trkpt><trkpt lat="44.7012967" lon="10.2200833"><ele>201.33333333333334</ele><time>2026-04-08T09:20:28.989Z</time></trkpt><trkpt lat="44.701315" lon="10.2199967"><ele>202.16666666666669</ele><time>2026-04-08T09:20:29.989Z</time></trkpt><trkpt lat="44.70135" lon="10.2198817"><ele>203.0</ele><time>2026-04-08T09:20:31.989Z</time></trkpt><trkpt lat="44.7013483" lon="10.2197783"><ele>203.0</ele><time>2026-04-08T09:20:34.989Z</time></trkpt><trkpt lat="44.7013317" lon="10.2198883"><ele>203.0</ele><time>2026-04-08T09:21:43.988Z</time></trkpt><trkpt lat="44.7012867" lon="10.2200583"><ele>203.0</ele><time>2026-04-08T09:21:45.989Z</time></trkpt><trkpt lat="44.7012533" lon="10.22017"><ele>203.0</ele><time>2026-04-08T09:21:46.989Z</time></trkpt><trkpt lat="44.70122" lon="10.2203"><ele>203.0</ele><time>2026-04-08T09:21:47.988Z</time></trkpt><trkpt lat="44.7011733" lon="10.2204383"><ele>203.0</ele><time>2026-04-08T09:21:48.989Z</time></trkpt><trkpt lat="44.70113" lon="10.2205783"><ele>203.0</ele><time>2026-04-08T09:21:49.989Z</time></trkpt><trkpt lat="44.7010867" lon="10.2207167"><ele>203.0</ele><time>2026-04-08T09:21:50.989Z</time></trkpt><trkpt lat="44.70105" lon="10.2208517"><ele>203.0</ele><time>2026-04-08T09:21:51.988Z</time></trkpt><trkpt lat="44.7010117" lon="10.2209817"><ele>203.0</ele><time>2026-04-08T09:21:52.989Z</time></trkpt><trkpt lat="44.7009733" lon="10.2211133"><ele>202.16666666666669</ele><time>2026-04-08T09:21:53.989Z</time></trkpt><trkpt lat="44.7009383" lon="10.2212433"><ele>201.33333333333334</ele><time>2026-04-08T09:21:54.988Z</time></trkpt><trkpt lat="44.7009067" lon="10.2213633"><ele>200.5</ele><time>2026-04-08T09:21:55.989Z</time></trkpt><trkpt lat="44.70088" lon="10.2214833"><ele>199.66666666666669</ele><time>2026-04-08T09:21:56.989Z</time></trkpt><trkpt lat="44.70085" lon="10.2215867"><ele>198.83333333333334</ele><time>2026-04-08T09:21:57.989Z</time></trkpt><trkpt lat="44.7008117" lon="10.221675"><ele>198.0</ele><time>2026-04-08T09:21:58.989Z</time></trkpt><trkpt lat="44.7007967" lon="10.2217717"><ele>196.83333333333334</ele><time>2026-04-08T09:21:59.989Z</time></trkpt><trkpt lat="44.7007783" lon="10.221935"><ele>195.66666666666666</ele><time>2026-04-08T09:22:01.989Z</time></trkpt><trkpt lat="44.7007483" lon="10.2220417"><ele>194.5</ele><time>2026-04-08T09:22:03.988Z</time></trkpt><trkpt lat="44.700695" lon="10.2221017"><ele>193.33333333333331</ele><time>2026-04-08T09:22:10.989Z</time></trkpt><trkpt lat="44.7006133" lon="10.2221483"><ele>192.16666666666666</ele><time>2026-04-08T09:22:12.989Z</time></trkpt><trkpt lat="44.7005267" lon="10.22218"><ele>191.0</ele><time>2026-04-08T09:22:14.988Z</time></trkpt><trkpt lat="44.70044" lon="10.2222133"><ele>191.0</ele><time>2026-04-08T09:22:16.988Z</time></trkpt><trkpt lat="44.7003667" lon="10.222245"><ele>191.0</ele><time>2026-04-08T09:22:18.989Z</time></trkpt><trkpt lat="44.700275" lon="10.22228"><ele>191.0</ele><time>2026-04-08T09:22:20.988Z</time></trkpt><trkpt lat="44.7001617" lon="10.22231"><ele>191.0</ele><time>2026-04-08T09:22:22.989Z</time></trkpt><trkpt lat="44.7000917" lon="10.2223217"><ele>191.0</ele><time>2026-04-08T09:22:23.989Z</time></trkpt><trkpt lat="44.7000183" lon="10.2223267"><ele>191.0</ele><time>2026-04-08T09:22:24.989Z</time></trkpt><trkpt lat="44.69994" lon="10.2223283"><ele>191.0</ele><time>2026-04-08T09:22:25.989Z</time></trkpt><trkpt lat="44.6998583" lon="10.222315"><ele>191.0</ele><time>2026-04-08T09:22:26.989Z</time></trkpt><trkpt lat="44.69977" lon="10.2223033"><ele>191.0</ele><time>2026-04-08T09:22:27.989Z</time></trkpt><trkpt lat="44.6996783" lon="10.2222817"><ele>191.0</ele><time>2026-04-08T09:22:28.989Z</time></trkpt><trkpt lat="44.6995733" lon="10.22225"><ele>191.0</ele><time>2026-04-08T09:22:29.988Z</time></trkpt><trkpt lat="44.699455" lon="10.2222117"><ele>191.25</ele><time>2026-04-08T09:22:30.988Z</time></trkpt><trkpt lat="44.69934" lon="10.22215"><ele>191.5</ele><time>2026-04-08T09:22:31.988Z</time></trkpt><trkpt lat="44.6992133" lon="10.222105"><ele>191.75</ele><time>2026-04-08T09:22:32.988Z</time></trkpt><trkpt lat="44.6991" lon="10.2220717"><ele>192.0</ele><time>2026-04-08T09:22:33.989Z</time></trkpt><trkpt lat="44.6990017" lon="10.2220317"><ele>192.0</ele><time>2026-04-08T09:22:34.989Z</time></trkpt><trkpt lat="44.6989133" lon="10.2219817"><ele>192.0</ele><time>2026-04-08T09:22:35.989Z</time></trkpt><trkpt lat="44.6988217" lon="10.22196"><ele>192.0</ele><time>2026-04-08T09:22:36.989Z</time></trkpt><trkpt lat="44.6987433" lon="10.2219317"><ele>192.0</ele><time>2026-04-08T09:22:37.989Z</time></trkpt><trkpt lat="44.6986767" lon="10.2218983"><ele>192.0</ele><time>2026-04-08T09:22:38.989Z</time></trkpt><trkpt lat="44.6985717" lon="10.22189"><ele>192.0</ele><time>2026-04-08T09:22:40.989Z</time></trkpt><trkpt lat="44.6984717" lon="10.2219417"><ele>191.16666666666666</ele><time>2026-04-08T09:22:42.989Z</time></trkpt><trkpt lat="44.6984267" lon="10.222005"><ele>190.33333333333334</ele><time>2026-04-08T09:22:43.988Z</time></trkpt><trkpt lat="44.6983967" lon="10.2221133"><ele>189.5</ele><time>2026-04-08T09:22:44.988Z</time></trkpt><trkpt lat="44.69836" lon="10.222235"><ele>188.66666666666669</ele><time>2026-04-08T09:22:45.989Z</time></trkpt><trkpt lat="44.6983217" lon="10.222375"><ele>187.83333333333334</ele><time>2026-04-08T09:22:46.989Z</time></trkpt><trkpt lat="44.6982767" lon="10.2224983"><ele>187.0</ele><time>2026-04-08T09:22:47.989Z</time></trkpt><trkpt lat="44.6982367" lon="10.2226033"><ele>186.5</ele><time>2026-04-08T09:22:48.989Z</time></trkpt><trkpt lat="44.6982033" lon="10.222695"><ele>186.0</ele><time>2026-04-08T09:22:49.989Z</time></trkpt><trkpt lat="44.6981717" lon="10.2227717"><ele>185.5</ele><time>2026-04-08T09:22:50.989Z</time></trkpt><trkpt lat="44.6981033" lon="10.2228817"><ele>185.0</ele><time>2026-04-08T09:22:52.989Z</time></trkpt><trkpt lat="44.6980333" lon="10.2229317"><ele>184.5</ele><time>2026-04-08T09:22:55.989Z</time></trkpt><trkpt lat="44.6979417" lon="10.22291"><ele>184.0</ele><time>2026-04-08T09:23:06.988Z</time></trkpt><trkpt lat="44.6978717" lon="10.2228667"><ele>184.0</ele><time>2026-04-08T09:23:07.989Z</time></trkpt><trkpt lat="44.6977783" lon="10.2227983"><ele>184.0</ele><time>2026-04-08T09:23:08.989Z</time></trkpt><trkpt lat="44.69766" lon="10.2227083"><ele>184.0</ele><time>2026-04-08T09:23:09.989Z</time></trkpt><trkpt lat="44.697525" lon="10.2226017"><ele>184.0</ele><time>2026-04-08T09:23:10.989Z</time></trkpt><trkpt lat="44.6973667" lon="10.2224883"><ele>185.0</ele><time>2026-04-08T09:23:11.988Z</time></trkpt><trkpt lat="44.6971967" lon="10.222365"><ele>186.0</ele><time>2026-04-08T09:23:12.989Z</time></trkpt><trkpt lat="44.6970233" lon="10.2222333"><ele>187.0</ele><time>2026-04-08T09:23:13.989Z</time></trkpt><trkpt lat="44.6968233" lon="10.2220917"><ele>188.0</ele><time>2026-04-08T09:23:14.989Z</time></trkpt><trkpt lat="44.6966183" lon="10.22195"><ele>189.0</ele><time>2026-04-08T09:23:15.989Z</time></trkpt><trkpt lat="44.696415" lon="10.2217983"><ele>189.0</ele><time>2026-04-08T09:23:16.989Z</time></trkpt><trkpt lat="44.69622" lon="10.2216517"><ele>189.0</ele><time>2026-04-08T09:23:17.989Z</time></trkpt><trkpt lat="44.696035" lon="10.2215183"><ele>189.0</ele><time>2026-04-08T09:23:18.989Z</time></trkpt><trkpt lat="44.695865" lon="10.2213917"><ele>189.33333333333334</ele><time>2026-04-08T09:23:19.988Z</time></trkpt><trkpt lat="44.6957083" lon="10.22127"><ele>189.66666666666669</ele><time>2026-04-08T09:23:20.989Z</time></trkpt><trkpt lat="44.6955567" lon="10.2211533"><ele>190.0</ele><time>2026-04-08T09:23:21.989Z</time></trkpt><trkpt lat="44.6954067" lon="10.2210367"><ele>190.0</ele><time>2026-04-08T09:23:22.989Z</time></trkpt><trkpt lat="44.69526" lon="10.2209283"><ele>190.0</ele><time>2026-04-08T09:23:23.989Z</time></trkpt><trkpt lat="44.69511" lon="10.2208233"><ele>190.0</ele><time>2026-04-08T09:23:24.989Z</time></trkpt><trkpt lat="44.69496" lon="10.2207133"><ele>190.0</ele><time>2026-04-08T09:23:25.988Z</time></trkpt><trkpt lat="44.6948067" lon="10.22061"><ele>190.0</ele><time>2026-04-08T09:23:26.989Z</time></trkpt><trkpt lat="44.6946583" lon="10.2204967"><ele>190.0</ele><time>2026-04-08T09:23:27.988Z</time></trkpt><trkpt lat="44.69451" lon="10.2203817"><ele>191.33333333333334</ele><time>2026-04-08T09:23:28.989Z</time></trkpt><trkpt lat="44.69436" lon="10.22027"><ele>192.66666666666669</ele><time>2026-04-08T09:23:29.989Z</time></trkpt><trkpt lat="44.6942167" lon="10.2201633"><ele>194.0</ele><time>2026-04-08T09:23:30.988Z</time></trkpt><trkpt lat="44.6940767" lon="10.220055"><ele>194.0</ele><time>2026-04-08T09:23:31.989Z</time></trkpt><trkpt lat="44.69394" lon="10.2199517"><ele>194.0</ele><time>2026-04-08T09:23:32.988Z</time></trkpt><trkpt lat="44.6938017" lon="10.21985"><ele>194.0</ele><time>2026-04-08T09:23:33.989Z</time></trkpt><trkpt lat="44.69366" lon="10.2197567"><ele>194.33333333333334</ele><time>2026-04-08T09:23:34.989Z</time></trkpt><trkpt lat="44.693525" lon="10.2196467"><ele>194.66666666666669</ele><time>2026-04-08T09:23:35.989Z</time></trkpt><trkpt lat="44.6933833" lon="10.2195317"><ele>195.0</ele><time>2026-04-08T09:23:36.989Z</time></trkpt><trkpt lat="44.6932367" lon="10.2194317"><ele>195.0</ele><time>2026-04-08T09:23:37.988Z</time></trkpt><trkpt lat="44.6930917" lon="10.21933"><ele>195.0</ele><time>2026-04-08T09:23:38.989Z</time></trkpt><trkpt lat="44.6929567" lon="10.21923"><ele>195.0</ele><time>2026-04-08T09:23:39.989Z</time></trkpt><trkpt lat="44.6928217" lon="10.2191333"><ele>195.25</ele><time>2026-04-08T09:23:40.989Z</time></trkpt><trkpt lat="44.6927" lon="10.2190367"><ele>195.5</ele><time>2026-04-08T09:23:41.988Z</time></trkpt><trkpt lat="44.6925833" lon="10.2189417"><ele>195.75</ele><time>2026-04-08T09:23:42.989Z</time></trkpt><trkpt lat="44.69244" lon="10.21884"><ele>196.0</ele><time>2026-04-08T09:23:43.989Z</time></trkpt><trkpt lat="44.6922983" lon="10.2187383"><ele>196.0</ele><time>2026-04-08T09:23:44.989Z</time></trkpt><trkpt lat="44.6921517" lon="10.2186283"><ele>196.0</ele><time>2026-04-08T09:23:45.988Z</time></trkpt><trkpt lat="44.6920033" lon="10.2185133"><ele>196.0</ele><time>2026-04-08T09:23:46.988Z</time></trkpt><trkpt lat="44.69185" lon="10.218405"><ele>196.0</ele><time>2026-04-08T09:23:47.988Z</time></trkpt><trkpt lat="44.6917" lon="10.21829"><ele>196.0</ele><time>2026-04-08T09:23:48.988Z</time></trkpt><trkpt lat="44.6915417" lon="10.2181817"><ele>196.0</ele><time>2026-04-08T09:23:49.989Z</time></trkpt><trkpt lat="44.691375" lon="10.21806"><ele>196.0</ele><time>2026-04-08T09:23:50.989Z</time></trkpt><trkpt lat="44.6912117" lon="10.2179367"><ele>196.0</ele><time>2026-04-08T09:23:51.989Z</time></trkpt><trkpt lat="44.69104" lon="10.217815"><ele>196.0</ele><time>2026-04-08T09:23:52.989Z</time></trkpt><trkpt lat="44.69087" lon="10.2176883"><ele>196.66666666666666</ele><time>2026-04-08T09:23:53.988Z</time></trkpt><trkpt lat="44.6907017" lon="10.2175617"><ele>197.33333333333331</ele><time>2026-04-08T09:23:54.989Z</time></trkpt><trkpt lat="44.6905217" lon="10.217435"><ele>198.0</ele><time>2026-04-08T09:23:55.988Z</time></trkpt><trkpt lat="44.6903467" lon="10.2173"><ele>199.33333333333331</ele><time>2026-04-08T09:23:56.989Z</time></trkpt><trkpt lat="44.69017" lon="10.2171667"><ele>200.66666666666666</ele><time>2026-04-08T09:23:57.989Z</time></trkpt><trkpt lat="44.689995" lon="10.2170367"><ele>202.0</ele><time>2026-04-08T09:23:58.988Z</time></trkpt><trkpt lat="44.68983" lon="10.216915"><ele>202.0</ele><time>2026-04-08T09:23:59.989Z</time></trkpt><trkpt lat="44.6896733" lon="10.2167917"><ele>202.0</ele><time>2026-04-08T09:24:00.989Z</time></trkpt><trkpt lat="44.6895183" lon="10.2166767"><ele>202.0</ele><time>2026-04-08T09:24:01.989Z</time></trkpt><trkpt lat="44.6893733" lon="10.2165683"><ele>202.33333333333331</ele><time>2026-04-08T09:24:02.989Z</time></trkpt><trkpt lat="44.6892283" lon="10.2164617"><ele>202.66666666666669</ele><time>2026-04-08T09:24:03.988Z</time></trkpt><trkpt lat="44.6890917" lon="10.2163567"><ele>203.0</ele><time>2026-04-08T09:24:04.989Z</time></trkpt><trkpt lat="44.6889417" lon="10.2162433"><ele>203.0</ele><time>2026-04-08T09:24:05.988Z</time></trkpt><trkpt lat="44.6887917" lon="10.2161317"><ele>203.0</ele><time>2026-04-08T09:24:06.988Z</time></trkpt><trkpt lat="44.6886417" lon="10.2160117"><ele>203.0</ele><time>2026-04-08T09:24:07.989Z</time></trkpt><trkpt lat="44.6884883" lon="10.2158833"><ele>202.33333333333334</ele><time>2026-04-08T09:24:08.989Z</time></trkpt><trkpt lat="44.68833" lon="10.215745"><ele>201.66666666666669</ele><time>2026-04-08T09:24:09.989Z</time></trkpt><trkpt lat="44.6881683" lon="10.215595"><ele>201.0</ele><time>2026-04-08T09:24:10.989Z</time></trkpt><trkpt lat="44.6879983" lon="10.2154367"><ele>200.66666666666669</ele><time>2026-04-08T09:24:11.989Z</time></trkpt><trkpt lat="44.6878283" lon="10.2152633"><ele>200.33333333333334</ele><time>2026-04-08T09:24:12.988Z</time></trkpt><trkpt lat="44.6876617" lon="10.2150833"><ele>200.0</ele><time>2026-04-08T09:24:13.988Z</time></trkpt><trkpt lat="44.68749" lon="10.2149"><ele>201.0</ele><time>2026-04-08T09:24:14.989Z</time></trkpt><trkpt lat="44.6873167" lon="10.214715"><ele>202.0</ele><time>2026-04-08T09:24:15.989Z</time></trkpt><trkpt lat="44.6871417" lon="10.2145333"><ele>203.0</ele><time>2026-04-08T09:24:16.989Z</time></trkpt><trkpt lat="44.6869633" lon="10.2143433"><ele>204.0</ele><time>2026-04-08T09:24:17.989Z</time></trkpt><trkpt lat="44.6867767" lon="10.2141567"><ele>205.0</ele><time>2026-04-08T09:24:18.989Z</time></trkpt><trkpt lat="44.6865883" lon="10.213965"><ele>205.0</ele><time>2026-04-08T09:24:19.989Z</time></trkpt><trkpt lat="44.6863967" lon="10.2137633"><ele>205.0</ele><time>2026-04-08T09:24:20.989Z</time></trkpt><trkpt lat="44.686205" lon="10.2135617"><ele>206.5</ele><time>2026-04-08T09:24:21.988Z</time></trkpt><trkpt lat="44.6860133" lon="10.21336"><ele>208.0</ele><time>2026-04-08T09:24:22.989Z</time></trkpt><trkpt lat="44.6858183" lon="10.213155"><ele>208.0</ele><time>2026-04-08T09:24:23.988Z</time></trkpt><trkpt lat="44.6856083" lon="10.2129367"><ele>208.0</ele><time>2026-04-08T09:24:24.989Z</time></trkpt><trkpt lat="44.6853967" lon="10.2127167"><ele>209.5</ele><time>2026-04-08T09:24:25.989Z</time></trkpt><trkpt lat="44.6851867" lon="10.2124967"><ele>211.0</ele><time>2026-04-08T09:24:26.989Z</time></trkpt><trkpt lat="44.6849817" lon="10.21229"><ele>211.0</ele><time>2026-04-08T09:24:27.989Z</time></trkpt><trkpt lat="44.6847783" lon="10.2120817"><ele>211.0</ele><time>2026-04-08T09:24:28.989Z</time></trkpt><trkpt lat="44.6845683" lon="10.2118783"><ele>211.0</ele><time>2026-04-08T09:24:29.989Z</time></trkpt><trkpt lat="44.6843683" lon="10.2116717"><ele>211.0</ele><time>2026-04-08T09:24:30.989Z</time></trkpt><trkpt lat="44.6841733" lon="10.21147"><ele>210.5</ele><time>2026-04-08T09:24:31.989Z</time></trkpt><trkpt lat="44.68398" lon="10.2112633"><ele>210.0</ele><time>2026-04-08T09:24:32.989Z</time></trkpt><trkpt lat="44.6837983" lon="10.2110567"><ele>210.0</ele><time>2026-04-08T09:24:33.989Z</time></trkpt><trkpt lat="44.6836017" lon="10.210875"><ele>210.0</ele><time>2026-04-08T09:24:34.988Z</time></trkpt><trkpt lat="44.683405" lon="10.2106717"><ele>210.5</ele><time>2026-04-08T09:24:35.989Z</time></trkpt><trkpt lat="44.6832083" lon="10.2104733"><ele>211.0</ele><time>2026-04-08T09:24:36.989Z</time></trkpt><trkpt lat="44.6830083" lon="10.2102717"><ele>211.0</ele><time>2026-04-08T09:24:37.988Z</time></trkpt><trkpt lat="44.6828067" lon="10.2100683"><ele>211.0</ele><time>2026-04-08T09:24:38.989Z</time></trkpt><trkpt lat="44.6825983" lon="10.2098583"><ele>213.5</ele><time>2026-04-08T09:24:39.99Z</time></trkpt><trkpt lat="44.6823883" lon="10.2096467"><ele>216.0</ele><time>2026-04-08T09:24:40.99Z</time></trkpt><trkpt lat="44.6821783" lon="10.20943"><ele>216.0</ele><time>2026-04-08T09:24:41.99Z</time></trkpt><trkpt lat="44.6819683" lon="10.2092083"><ele>216.0</ele><time>2026-04-08T09:24:42.989Z</time></trkpt><trkpt lat="44.68175" lon="10.208985"><ele>215.0</ele><time>2026-04-08T09:24:43.99Z</time></trkpt><trkpt lat="44.6815283" lon="10.2087583"><ele>214.0</ele><time>2026-04-08T09:24:44.989Z</time></trkpt><trkpt lat="44.6813033" lon="10.2085317"><ele>214.0</ele><time>2026-04-08T09:24:45.99Z</time></trkpt><trkpt lat="44.6810817" lon="10.2083"><ele>214.0</ele><time>2026-04-08T09:24:46.99Z</time></trkpt><trkpt lat="44.6808533" lon="10.2080667"><ele>215.5</ele><time>2026-04-08T09:24:47.99Z</time></trkpt><trkpt lat="44.6806233" lon="10.2078317"><ele>217.0</ele><time>2026-04-08T09:24:48.989Z</time></trkpt><trkpt lat="44.6803967" lon="10.2076033"><ele>218.0</ele><time>2026-04-08T09:24:49.989Z</time></trkpt><trkpt lat="44.680175" lon="10.2073783"><ele>219.0</ele><time>2026-04-08T09:24:50.99Z</time></trkpt><trkpt lat="44.6799583" lon="10.20716"><ele>219.0</ele><time>2026-04-08T09:24:51.989Z</time></trkpt><trkpt lat="44.6797433" lon="10.20694"><ele>219.0</ele><time>2026-04-08T09:24:52.99Z</time></trkpt><trkpt lat="44.6795283" lon="10.2067233"><ele>218.0</ele><time>2026-04-08T09:24:53.99Z</time></trkpt><trkpt lat="44.679315" lon="10.206505"><ele>217.0</ele><time>2026-04-08T09:24:54.99Z</time></trkpt><trkpt lat="44.6791067" lon="10.2062883"><ele>219.0</ele><time>2026-04-08T09:24:55.99Z</time></trkpt><trkpt lat="44.6789033" lon="10.206075"><ele>221.0</ele><time>2026-04-08T09:24:56.99Z</time></trkpt><trkpt lat="44.6786983" lon="10.2058617"><ele>223.5</ele><time>2026-04-08T09:24:57.99Z</time></trkpt><trkpt lat="44.6784983" lon="10.20565"><ele>226.0</ele><time>2026-04-08T09:24:58.989Z</time></trkpt><trkpt lat="44.6783" lon="10.205445"><ele>226.0</ele><time>2026-04-08T09:24:59.99Z</time></trkpt><trkpt lat="44.6781" lon="10.205245"><ele>226.0</ele><time>2026-04-08T09:25:00.989Z</time></trkpt><trkpt lat="44.6779067" lon="10.2050483"><ele>226.0</ele><time>2026-04-08T09:25:01.99Z</time></trkpt><trkpt lat="44.677715" lon="10.2048483"><ele>226.0</ele><time>2026-04-08T09:25:02.99Z</time></trkpt><trkpt lat="44.677525" lon="10.20466"><ele>226.0</ele><time>2026-04-08T09:25:03.99Z</time></trkpt><trkpt lat="44.6773417" lon="10.2044767"><ele>226.0</ele><time>2026-04-08T09:25:04.99Z</time></trkpt><trkpt lat="44.6771733" lon="10.2043083"><ele>226.0</ele><time>2026-04-08T09:25:05.989Z</time></trkpt><trkpt lat="44.677015" lon="10.2041367"><ele>227.0</ele><time>2026-04-08T09:25:06.99Z</time></trkpt><trkpt lat="44.6768583" lon="10.2039767"><ele>228.0</ele><time>2026-04-08T09:25:07.99Z</time></trkpt><trkpt lat="44.676705" lon="10.2038167"><ele>229.0</ele><time>2026-04-08T09:25:08.99Z</time></trkpt><trkpt lat="44.676555" lon="10.2036617"><ele>229.0</ele><time>2026-04-08T09:25:09.99Z</time></trkpt><trkpt lat="44.6763983" lon="10.2035083"><ele>229.0</ele><time>2026-04-08T09:25:10.989Z</time></trkpt><trkpt lat="44.676245" lon="10.2033467"><ele>229.0</ele><time>2026-04-08T09:25:11.99Z</time></trkpt><trkpt lat="44.6760783" lon="10.2031767"><ele>227.5</ele><time>2026-04-08T09:25:12.989Z</time></trkpt><trkpt lat="44.6758933" lon="10.2030133"><ele>226.0</ele><time>2026-04-08T09:25:13.989Z</time></trkpt><trkpt lat="44.6756967" lon="10.2028367"><ele>226.0</ele><time>2026-04-08T09:25:14.99Z</time></trkpt><trkpt lat="44.6754817" lon="10.202665"><ele>226.0</ele><time>2026-04-08T09:25:15.99Z</time></trkpt><trkpt lat="44.6752567" lon="10.2024917"><ele>226.0</ele><time>2026-04-08T09:25:16.99Z</time></trkpt><trkpt lat="44.6750417" lon="10.202325"><ele>226.0</ele><time>2026-04-08T09:25:17.989Z</time></trkpt><trkpt lat="44.6748367" lon="10.20217"><ele>226.0</ele><time>2026-04-08T09:25:18.989Z</time></trkpt><trkpt lat="44.674635" lon="10.202015"><ele>226.0</ele><time>2026-04-08T09:25:19.99Z</time></trkpt><trkpt lat="44.6744367" lon="10.2018533"><ele>226.66666666666666</ele><time>2026-04-08T09:25:20.989Z</time></trkpt><trkpt lat="44.67424" lon="10.201705"><ele>227.33333333333331</ele><time>2026-04-08T09:25:21.99Z</time></trkpt><trkpt lat="44.6740517" lon="10.2015583"><ele>228.0</ele><time>2026-04-08T09:25:22.99Z</time></trkpt><trkpt lat="44.6738783" lon="10.2014217"><ele>228.33333333333331</ele><time>2026-04-08T09:25:23.99Z</time></trkpt><trkpt lat="44.6737117" lon="10.2012883"><ele>228.66666666666666</ele><time>2026-04-08T09:25:24.989Z</time></trkpt><trkpt lat="44.6735667" lon="10.2011767"><ele>229.0</ele><time>2026-04-08T09:25:25.99Z</time></trkpt><trkpt lat="44.6734283" lon="10.2010667"><ele>229.5</ele><time>2026-04-08T09:25:26.99Z</time></trkpt><trkpt lat="44.67332" lon="10.20094"><ele>230.0</ele><time>2026-04-08T09:25:27.989Z</time></trkpt><trkpt lat="44.6732217" lon="10.200785"><ele>230.5</ele><time>2026-04-08T09:25:28.989Z</time></trkpt><trkpt lat="44.6731267" lon="10.2006133"><ele>231.0</ele><time>2026-04-08T09:25:29.989Z</time></trkpt><trkpt lat="44.6730217" lon="10.2004133"><ele>231.0</ele><time>2026-04-08T09:25:30.99Z</time></trkpt><trkpt lat="44.6728967" lon="10.2001967"><ele>231.0</ele><time>2026-04-08T09:25:31.989Z</time></trkpt><trkpt lat="44.6727683" lon="10.19996"><ele>231.0</ele><time>2026-04-08T09:25:32.989Z</time></trkpt><trkpt lat="44.672635" lon="10.1997183"><ele>230.66666666666669</ele><time>2026-04-08T09:25:33.99Z</time></trkpt><trkpt lat="44.6725067" lon="10.1994733"><ele>230.33333333333334</ele><time>2026-04-08T09:25:34.99Z</time></trkpt><trkpt lat="44.6723717" lon="10.1992267"><ele>230.0</ele><time>2026-04-08T09:25:35.989Z</time></trkpt><trkpt lat="44.6722317" lon="10.1989733"><ele>231.0</ele><time>2026-04-08T09:25:36.99Z</time></trkpt><trkpt lat="44.67209" lon="10.1987067"><ele>232.0</ele><time>2026-04-08T09:25:37.989Z</time></trkpt><trkpt lat="44.6719383" lon="10.1984267"><ele>234.5</ele><time>2026-04-08T09:25:38.99Z</time></trkpt><trkpt lat="44.6717767" lon="10.19814"><ele>237.0</ele><time>2026-04-08T09:25:39.989Z</time></trkpt><trkpt lat="44.671625" lon="10.1978583"><ele>237.0</ele><time>2026-04-08T09:25:40.99Z</time></trkpt><trkpt lat="44.67148" lon="10.1975933"><ele>237.0</ele><time>2026-04-08T09:25:41.989Z</time></trkpt><trkpt lat="44.6713483" lon="10.1973517"><ele>237.33333333333331</ele><time>2026-04-08T09:25:42.99Z</time></trkpt><trkpt lat="44.6712283" lon="10.1971317"><ele>237.66666666666666</ele><time>2026-04-08T09:25:43.99Z</time></trkpt><trkpt lat="44.6710933" lon="10.1969267"><ele>238.0</ele><time>2026-04-08T09:25:44.99Z</time></trkpt><trkpt lat="44.6709383" lon="10.1967383"><ele>238.0</ele><time>2026-04-08T09:25:45.989Z</time></trkpt><trkpt lat="44.6707717" lon="10.1965617"><ele>238.0</ele><time>2026-04-08T09:25:46.989Z</time></trkpt><trkpt lat="44.6705917" lon="10.1963767"><ele>238.0</ele><time>2026-04-08T09:25:47.99Z</time></trkpt><trkpt lat="44.6704067" lon="10.19618"><ele>239.5</ele><time>2026-04-08T09:25:48.989Z</time></trkpt><trkpt lat="44.6702183" lon="10.1959767"><ele>241.0</ele><time>2026-04-08T09:25:49.989Z</time></trkpt><trkpt lat="44.670025" lon="10.195785"><ele>242.0</ele><time>2026-04-08T09:25:50.989Z</time></trkpt><trkpt lat="44.6698383" lon="10.1955917"><ele>243.0</ele><time>2026-04-08T09:25:51.99Z</time></trkpt><trkpt lat="44.6696467" lon="10.1953983"><ele>243.0</ele><time>2026-04-08T09:25:52.99Z</time></trkpt><trkpt lat="44.66946" lon="10.1952"><ele>243.0</ele><time>2026-04-08T09:25:53.99Z</time></trkpt><trkpt lat="44.6692683" lon="10.195"><ele>243.0</ele><time>2026-04-08T09:25:54.99Z</time></trkpt><trkpt lat="44.6690783" lon="10.1948"><ele>243.0</ele><time>2026-04-08T09:25:55.989Z</time></trkpt><trkpt lat="44.66889" lon="10.1946083"><ele>243.0</ele><time>2026-04-08T09:25:56.99Z</time></trkpt><trkpt lat="44.6687067" lon="10.19442"><ele>243.0</ele><time>2026-04-08T09:25:57.989Z</time></trkpt><trkpt lat="44.668535" lon="10.1942383"><ele>243.0</ele><time>2026-04-08T09:25:58.989Z</time></trkpt><trkpt lat="44.6683583" lon="10.1940617"><ele>243.0</ele><time>2026-04-08T09:25:59.99Z</time></trkpt><trkpt lat="44.6681917" lon="10.1938867"><ele>243.0</ele><time>2026-04-08T09:26:00.99Z</time></trkpt><trkpt lat="44.66803" lon="10.19371"><ele>243.0</ele><time>2026-04-08T09:26:01.99Z</time></trkpt><trkpt lat="44.6678667" lon="10.1935433"><ele>243.33333333333331</ele><time>2026-04-08T09:26:02.99Z</time></trkpt><trkpt lat="44.6677083" lon="10.1933783"><ele>243.66666666666666</ele><time>2026-04-08T09:26:03.99Z</time></trkpt><trkpt lat="44.667565" lon="10.193225"><ele>244.0</ele><time>2026-04-08T09:26:04.989Z</time></trkpt><trkpt lat="44.66743" lon="10.1930817"><ele>244.75</ele><time>2026-04-08T09:26:05.99Z</time></trkpt><trkpt lat="44.6673" lon="10.192945"><ele>245.5</ele><time>2026-04-08T09:26:06.99Z</time></trkpt><trkpt lat="44.6671817" lon="10.19281"><ele>246.25</ele><time>2026-04-08T09:26:07.99Z</time></trkpt><trkpt lat="44.66708" lon="10.1926933"><ele>247.0</ele><time>2026-04-08T09:26:08.99Z</time></trkpt><trkpt lat="44.666995" lon="10.192595"><ele>247.0</ele><time>2026-04-08T09:26:09.99Z</time></trkpt><trkpt lat="44.6669183" lon="10.1925117"><ele>247.0</ele><time>2026-04-08T09:26:10.99Z</time></trkpt><trkpt lat="44.6668517" lon="10.19245"><ele>247.0</ele><time>2026-04-08T09:26:11.99Z</time></trkpt><trkpt lat="44.6667817" lon="10.1923683"><ele>247.0</ele><time>2026-04-08T09:26:12.989Z</time></trkpt><trkpt lat="44.66671" lon="10.19228"><ele>247.0</ele><time>2026-04-08T09:26:13.99Z</time></trkpt><trkpt lat="44.666625" lon="10.1921783"><ele>247.5</ele><time>2026-04-08T09:26:14.989Z</time></trkpt><trkpt lat="44.66654" lon="10.1920767"><ele>248.0</ele><time>2026-04-08T09:26:15.989Z</time></trkpt><trkpt lat="44.66644" lon="10.19196"><ele>248.5</ele><time>2026-04-08T09:26:16.989Z</time></trkpt><trkpt lat="44.666335" lon="10.191845"><ele>249.0</ele><time>2026-04-08T09:26:17.99Z</time></trkpt><trkpt lat="44.6662333" lon="10.19172"><ele>249.0</ele><time>2026-04-08T09:26:18.99Z</time></trkpt><trkpt lat="44.6661317" lon="10.1916117"><ele>249.0</ele><time>2026-04-08T09:26:19.989Z</time></trkpt><trkpt lat="44.6660367" lon="10.1915017"><ele>249.0</ele><time>2026-04-08T09:26:20.99Z</time></trkpt><trkpt lat="44.6659533" lon="10.1914067"><ele>249.0</ele><time>2026-04-08T09:26:21.99Z</time></trkpt><trkpt lat="44.6658867" lon="10.1913067"><ele>248.79999999999998</ele><time>2026-04-08T09:26:22.989Z</time></trkpt><trkpt lat="44.6658067" lon="10.1912267"><ele>248.59999999999997</ele><time>2026-04-08T09:26:23.989Z</time></trkpt><trkpt lat="44.66573" lon="10.1911417"><ele>248.4</ele><time>2026-04-08T09:26:24.99Z</time></trkpt><trkpt lat="44.6656533" lon="10.1910367"><ele>248.2</ele><time>2026-04-08T09:26:25.99Z</time></trkpt><trkpt lat="44.6655617" lon="10.1909067"><ele>248.0</ele><time>2026-04-08T09:26:26.99Z</time></trkpt><trkpt lat="44.66545" lon="10.1907467"><ele>248.0</ele><time>2026-04-08T09:26:27.99Z</time></trkpt><trkpt lat="44.6653283" lon="10.1905717"><ele>248.0</ele><time>2026-04-08T09:26:28.99Z</time></trkpt><trkpt lat="44.6652" lon="10.19041"><ele>248.0</ele><time>2026-04-08T09:26:29.99Z</time></trkpt><trkpt lat="44.665075" lon="10.190245"><ele>248.0</ele><time>2026-04-08T09:26:30.99Z</time></trkpt><trkpt lat="44.6649667" lon="10.1900933"><ele>248.0</ele><time>2026-04-08T09:26:31.99Z</time></trkpt><trkpt lat="44.664855" lon="10.1899483"><ele>248.0</ele><time>2026-04-08T09:26:32.99Z</time></trkpt><trkpt lat="44.6647483" lon="10.1897983"><ele>248.25</ele><time>2026-04-08T09:26:33.99Z</time></trkpt><trkpt lat="44.6646417" lon="10.1896517"><ele>248.5</ele><time>2026-04-08T09:26:34.99Z</time></trkpt><trkpt lat="44.6645383" lon="10.1895217"><ele>248.75</ele><time>2026-04-08T09:26:35.99Z</time></trkpt><trkpt lat="44.664445" lon="10.1893983"><ele>249.0</ele><time>2026-04-08T09:26:36.99Z</time></trkpt><trkpt lat="44.66436" lon="10.1892883"><ele>249.39999999999998</ele><time>2026-04-08T09:26:37.989Z</time></trkpt><trkpt lat="44.6642833" lon="10.18919"><ele>249.79999999999998</ele><time>2026-04-08T09:26:38.99Z</time></trkpt><trkpt lat="44.664215" lon="10.1890867"><ele>250.20000000000002</ele><time>2026-04-08T09:26:39.99Z</time></trkpt><trkpt lat="44.6641417" lon="10.1889883"><ele>250.60000000000002</ele><time>2026-04-08T09:26:40.989Z</time></trkpt><trkpt lat="44.6640717" lon="10.1888883"><ele>251.0</ele><time>2026-04-08T09:26:41.99Z</time></trkpt><trkpt lat="44.6639917" lon="10.18877"><ele>252.0</ele><time>2026-04-08T09:26:42.99Z</time></trkpt><trkpt lat="44.6639033" lon="10.1886333"><ele>253.0</ele><time>2026-04-08T09:26:43.99Z</time></trkpt><trkpt lat="44.6638067" lon="10.18847"><ele>254.0</ele><time>2026-04-08T09:26:44.99Z</time></trkpt><trkpt lat="44.6637067" lon="10.1882767"><ele>254.0</ele><time>2026-04-08T09:26:45.989Z</time></trkpt><trkpt lat="44.663605" lon="10.18806"><ele>254.0</ele><time>2026-04-08T09:26:46.99Z</time></trkpt><trkpt lat="44.6635133" lon="10.1878467"><ele>254.0</ele><time>2026-04-08T09:26:47.99Z</time></trkpt><trkpt lat="44.6634267" lon="10.18765"><ele>254.0</ele><time>2026-04-08T09:26:48.99Z</time></trkpt><trkpt lat="44.6633583" lon="10.1874617"><ele>254.0</ele><time>2026-04-08T09:26:49.989Z</time></trkpt><trkpt lat="44.66329" lon="10.1872883"><ele>254.0</ele><time>2026-04-08T09:26:50.989Z</time></trkpt><trkpt lat="44.6632267" lon="10.1871167"><ele>254.0</ele><time>2026-04-08T09:26:51.99Z</time></trkpt><trkpt lat="44.6631533" lon="10.186955"><ele>255.0</ele><time>2026-04-08T09:26:52.99Z</time></trkpt><trkpt lat="44.6630733" lon="10.186785"><ele>256.0</ele><time>2026-04-08T09:26:53.99Z</time></trkpt><trkpt lat="44.6629633" lon="10.1866217"><ele>257.0</ele><time>2026-04-08T09:26:54.99Z</time></trkpt><trkpt lat="44.6628367" lon="10.1864667"><ele>258.0</ele><time>2026-04-08T09:26:55.989Z</time></trkpt><trkpt lat="44.6626833" lon="10.1863167"><ele>259.0</ele><time>2026-04-08T09:26:56.99Z</time></trkpt><trkpt lat="44.6625217" lon="10.18616"><ele>260.0</ele><time>2026-04-08T09:26:57.989Z</time></trkpt><trkpt lat="44.6623583" lon="10.1859883"><ele>260.0</ele><time>2026-04-08T09:26:58.989Z</time></trkpt><trkpt lat="44.6621633" lon="10.1858183"><ele>260.0</ele><time>2026-04-08T09:26:59.989Z</time></trkpt><trkpt lat="44.6619733" lon="10.1856533"><ele>261.0</ele><time>2026-04-08T09:27:00.99Z</time></trkpt><trkpt lat="44.661795" lon="10.1854917"><ele>262.0</ele><time>2026-04-08T09:27:01.99Z</time></trkpt><trkpt lat="44.6616233" lon="10.1853267"><ele>263.0</ele><time>2026-04-08T09:27:02.989Z</time></trkpt><trkpt lat="44.6614567" lon="10.18517"><ele>263.0</ele><time>2026-04-08T09:27:03.99Z</time></trkpt><trkpt lat="44.661295" lon="10.1850233"><ele>263.0</ele><time>2026-04-08T09:27:04.99Z</time></trkpt><trkpt lat="44.6611217" lon="10.184875"><ele>263.0</ele><time>2026-04-08T09:27:05.99Z</time></trkpt><trkpt lat="44.6609367" lon="10.18474"><ele>263.6666666666667</ele><time>2026-04-08T09:27:06.989Z</time></trkpt><trkpt lat="44.6607433" lon="10.184605"><ele>264.3333333333333</ele><time>2026-04-08T09:27:07.99Z</time></trkpt><trkpt lat="44.660545" lon="10.1844733"><ele>265.0</ele><time>2026-04-08T09:27:08.99Z</time></trkpt><trkpt lat="44.66036" lon="10.184345"><ele>266.0</ele><time>2026-04-08T09:27:09.99Z</time></trkpt><trkpt lat="44.6601817" lon="10.184215"><ele>267.0</ele><time>2026-04-08T09:27:10.99Z</time></trkpt><trkpt lat="44.6600017" lon="10.1840917"><ele>268.0</ele><time>2026-04-08T09:27:11.99Z</time></trkpt><trkpt lat="44.6598183" lon="10.1839667"><ele>268.0</ele><time>2026-04-08T09:27:12.99Z</time></trkpt><trkpt lat="44.6596367" lon="10.18384"><ele>268.0</ele><time>2026-04-08T09:27:13.989Z</time></trkpt><trkpt lat="44.659445" lon="10.1837"><ele>268.0</ele><time>2026-04-08T09:27:14.989Z</time></trkpt><trkpt lat="44.6592467" lon="10.183555"><ele>266.0</ele><time>2026-04-08T09:27:15.989Z</time></trkpt><trkpt lat="44.6590433" lon="10.1834133"><ele>264.0</ele><time>2026-04-08T09:27:16.99Z</time></trkpt><trkpt lat="44.6588383" lon="10.18328"><ele>265.3333333333333</ele><time>2026-04-08T09:27:17.99Z</time></trkpt><trkpt lat="44.6586367" lon="10.1831383"><ele>266.66666666666663</ele><time>2026-04-08T09:27:18.989Z</time></trkpt><trkpt lat="44.6584417" lon="10.1830067"><ele>268.0</ele><time>2026-04-08T09:27:19.99Z</time></trkpt><trkpt lat="44.658255" lon="10.18287"><ele>268.0</ele><time>2026-04-08T09:27:20.989Z</time></trkpt><trkpt lat="44.6580717" lon="10.1827467"><ele>268.0</ele><time>2026-04-08T09:27:21.99Z</time></trkpt><trkpt lat="44.657895" lon="10.1826217"><ele>268.0</ele><time>2026-04-08T09:27:22.99Z</time></trkpt><trkpt lat="44.657725" lon="10.1825083"><ele>266.66666666666663</ele><time>2026-04-08T09:27:23.989Z</time></trkpt><trkpt lat="44.6575567" lon="10.1823883"><ele>265.3333333333333</ele><time>2026-04-08T09:27:24.99Z</time></trkpt><trkpt lat="44.6573817" lon="10.1822617"><ele>264.0</ele><time>2026-04-08T09:27:25.99Z</time></trkpt><trkpt lat="44.6571967" lon="10.18214"><ele>265.3333333333333</ele><time>2026-04-08T09:27:26.99Z</time></trkpt><trkpt lat="44.65701" lon="10.182005"><ele>266.66666666666663</ele><time>2026-04-08T09:27:27.989Z</time></trkpt><trkpt lat="44.6568217" lon="10.1818683"><ele>268.0</ele><time>2026-04-08T09:27:28.99Z</time></trkpt><trkpt lat="44.656625" lon="10.1817333"><ele>268.0</ele><time>2026-04-08T09:27:29.99Z</time></trkpt><trkpt lat="44.6564283" lon="10.1815917"><ele>268.0</ele><time>2026-04-08T09:27:30.99Z</time></trkpt><trkpt lat="44.6562283" lon="10.1814533"><ele>268.0</ele><time>2026-04-08T09:27:31.99Z</time></trkpt><trkpt lat="44.6560283" lon="10.1813117"><ele>269.3333333333333</ele><time>2026-04-08T09:27:32.99Z</time></trkpt><trkpt lat="44.65583" lon="10.1811683"><ele>270.6666666666667</ele><time>2026-04-08T09:27:33.99Z</time></trkpt><trkpt lat="44.6556383" lon="10.1810317"><ele>272.0</ele><time>2026-04-08T09:27:34.989Z</time></trkpt><trkpt lat="44.6554433" lon="10.1808983"><ele>270.6666666666667</ele><time>2026-04-08T09:27:35.99Z</time></trkpt><trkpt lat="44.65524" lon="10.18076"><ele>269.3333333333333</ele><time>2026-04-08T09:27:36.99Z</time></trkpt><trkpt lat="44.6550433" lon="10.18062"><ele>268.0</ele><time>2026-04-08T09:27:37.99Z</time></trkpt><trkpt lat="44.6548383" lon="10.1804867"><ele>270.0</ele><time>2026-04-08T09:27:38.99Z</time></trkpt><trkpt lat="44.6546367" lon="10.1803467"><ele>272.0</ele><time>2026-04-08T09:27:39.99Z</time></trkpt><trkpt lat="44.654435" lon="10.180205"><ele>272.0</ele><time>2026-04-08T09:27:40.989Z</time></trkpt><trkpt lat="44.6542267" lon="10.1800683"><ele>272.0</ele><time>2026-04-08T09:27:41.989Z</time></trkpt><trkpt lat="44.6540083" lon="10.1799267"><ele>275.0</ele><time>2026-04-08T09:27:42.989Z</time></trkpt><trkpt lat="44.6537933" lon="10.17977"><ele>278.0</ele><time>2026-04-08T09:27:43.99Z</time></trkpt><trkpt lat="44.653575" lon="10.17961"><ele>278.0</ele><time>2026-04-08T09:27:44.989Z</time></trkpt><trkpt lat="44.65335" lon="10.1794533"><ele>278.0</ele><time>2026-04-08T09:27:45.989Z</time></trkpt><trkpt lat="44.653115" lon="10.179295"><ele>278.0</ele><time>2026-04-08T09:27:46.99Z</time></trkpt><trkpt lat="44.65288" lon="10.179135"><ele>278.0</ele><time>2026-04-08T09:27:47.99Z</time></trkpt><trkpt lat="44.6526467" lon="10.1789717"><ele>278.5</ele><time>2026-04-08T09:27:48.99Z</time></trkpt><trkpt lat="44.6524183" lon="10.1788133"><ele>279.0</ele><time>2026-04-08T09:27:49.989Z</time></trkpt><trkpt lat="44.6521867" lon="10.1786567"><ele>279.0</ele><time>2026-04-08T09:27:50.989Z</time></trkpt><trkpt lat="44.6519717" lon="10.1785083"><ele>279.0</ele><time>2026-04-08T09:27:51.989Z</time></trkpt><trkpt lat="44.6517533" lon="10.1783567"><ele>277.5</ele><time>2026-04-08T09:27:52.99Z</time></trkpt><trkpt lat="44.6515467" lon="10.178215"><ele>276.0</ele><time>2026-04-08T09:27:53.99Z</time></trkpt><trkpt lat="44.6513467" lon="10.1780733"><ele>278.6666666666667</ele><time>2026-04-08T09:27:54.99Z</time></trkpt><trkpt lat="44.651165" lon="10.177945"><ele>281.33333333333337</ele><time>2026-04-08T09:27:55.989Z</time></trkpt><trkpt lat="44.6509933" lon="10.17784"><ele>284.0</ele><time>2026-04-08T09:27:56.989Z</time></trkpt><trkpt lat="44.6508317" lon="10.17773"><ele>284.0</ele><time>2026-04-08T09:27:57.989Z</time></trkpt><trkpt lat="44.6506867" lon="10.1776217"><ele>284.0</ele><time>2026-04-08T09:27:58.989Z</time></trkpt><trkpt lat="44.6505533" lon="10.1775233"><ele>284.0</ele><time>2026-04-08T09:27:59.99Z</time></trkpt><trkpt lat="44.650415" lon="10.177435"><ele>283.33333333333337</ele><time>2026-04-08T09:28:00.989Z</time></trkpt><trkpt lat="44.6502533" lon="10.1773583"><ele>282.6666666666667</ele><time>2026-04-08T09:28:01.99Z</time></trkpt><trkpt lat="44.650085" lon="10.177285"><ele>282.0</ele><time>2026-04-08T09:28:02.989Z</time></trkpt><trkpt lat="44.6498967" lon="10.1771967"><ele>283.0</ele><time>2026-04-08T09:28:03.989Z</time></trkpt><trkpt lat="44.64969" lon="10.1771117"><ele>284.0</ele><time>2026-04-08T09:28:04.989Z</time></trkpt><trkpt lat="44.6494667" lon="10.1770267"><ele>285.0</ele><time>2026-04-08T09:28:05.99Z</time></trkpt><trkpt lat="44.6492233" lon="10.1769317"><ele>285.0</ele><time>2026-04-08T09:28:06.989Z</time></trkpt><trkpt lat="44.6489767" lon="10.1768317"><ele>285.0</ele><time>2026-04-08T09:28:07.99Z</time></trkpt><trkpt lat="44.648735" lon="10.1767417"><ele>284.0</ele><time>2026-04-08T09:28:08.99Z</time></trkpt><trkpt lat="44.6485067" lon="10.1766417"><ele>283.0</ele><time>2026-04-08T09:28:09.99Z</time></trkpt><trkpt lat="44.64829" lon="10.1765583"><ele>284.66666666666663</ele><time>2026-04-08T09:28:10.99Z</time></trkpt><trkpt lat="44.6480817" lon="10.1764733"><ele>286.3333333333333</ele><time>2026-04-08T09:28:11.99Z</time></trkpt><trkpt lat="44.647885" lon="10.176395"><ele>288.0</ele><time>2026-04-08T09:28:12.99Z</time></trkpt><trkpt lat="44.6476883" lon="10.1763183"><ele>288.0</ele><time>2026-04-08T09:28:13.989Z</time></trkpt><trkpt lat="44.6475" lon="10.1762517"><ele>288.0</ele><time>2026-04-08T09:28:14.99Z</time></trkpt><trkpt lat="44.647315" lon="10.17619"><ele>288.0</ele><time>2026-04-08T09:28:15.989Z</time></trkpt><trkpt lat="44.6471217" lon="10.1761467"><ele>288.3333333333333</ele><time>2026-04-08T09:28:16.99Z</time></trkpt><trkpt lat="44.646935" lon="10.176125"><ele>288.66666666666663</ele><time>2026-04-08T09:28:17.989Z</time></trkpt><trkpt lat="44.6467417" lon="10.1761183"><ele>289.0</ele><time>2026-04-08T09:28:18.99Z</time></trkpt><trkpt lat="44.6465533" lon="10.1761167"><ele>289.0</ele><time>2026-04-08T09:28:19.989Z</time></trkpt><trkpt lat="44.6463617" lon="10.1761133"><ele>289.0</ele><time>2026-04-08T09:28:20.989Z</time></trkpt><trkpt lat="44.6461833" lon="10.1761083"><ele>289.0</ele><time>2026-04-08T09:28:21.99Z</time></trkpt><trkpt lat="44.6460117" lon="10.17611"><ele>288.66666666666663</ele><time>2026-04-08T09:28:22.989Z</time></trkpt><trkpt lat="44.6458533" lon="10.1761117"><ele>288.3333333333333</ele><time>2026-04-08T09:28:23.99Z</time></trkpt><trkpt lat="44.6456967" lon="10.1761117"><ele>288.0</ele><time>2026-04-08T09:28:24.99Z</time></trkpt><trkpt lat="44.6455483" lon="10.17609"><ele>288.0</ele><time>2026-04-08T09:28:25.99Z</time></trkpt><trkpt lat="44.645405" lon="10.1760483"><ele>288.0</ele><time>2026-04-08T09:28:26.989Z</time></trkpt><trkpt lat="44.645255" lon="10.1759983"><ele>288.0</ele><time>2026-04-08T09:28:27.99Z</time></trkpt><trkpt lat="44.645105" lon="10.1759317"><ele>288.6666666666667</ele><time>2026-04-08T09:28:28.99Z</time></trkpt><trkpt lat="44.6449483" lon="10.1758567"><ele>289.33333333333337</ele><time>2026-04-08T09:28:29.989Z</time></trkpt><trkpt lat="44.644795" lon="10.175765"><ele>290.0</ele><time>2026-04-08T09:28:30.99Z</time></trkpt><trkpt lat="44.6446333" lon="10.1756667"><ele>290.33333333333337</ele><time>2026-04-08T09:28:31.989Z</time></trkpt><trkpt lat="44.6444683" lon="10.1755617"><ele>290.6666666666667</ele><time>2026-04-08T09:28:32.989Z</time></trkpt><trkpt lat="44.644305" lon="10.17546"><ele>291.0</ele><time>2026-04-08T09:28:33.99Z</time></trkpt><trkpt lat="44.6441433" lon="10.1753567"><ele>291.0</ele><time>2026-04-08T09:28:34.99Z</time></trkpt><trkpt lat="44.6439867" lon="10.175255"><ele>291.0</ele><time>2026-04-08T09:28:35.989Z</time></trkpt><trkpt lat="44.6438383" lon="10.1751567"><ele>291.0</ele><time>2026-04-08T09:28:36.99Z</time></trkpt><trkpt lat="44.643695" lon="10.1750683"><ele>290.5</ele><time>2026-04-08T09:28:37.989Z</time></trkpt><trkpt lat="44.6435467" lon="10.1749833"><ele>290.0</ele><time>2026-04-08T09:28:38.99Z</time></trkpt><trkpt lat="44.64341" lon="10.1749033"><ele>289.5</ele><time>2026-04-08T09:28:39.99Z</time></trkpt><trkpt lat="44.6432833" lon="10.1748183"><ele>289.0</ele><time>2026-04-08T09:28:40.99Z</time></trkpt><trkpt lat="44.6431633" lon="10.174745"><ele>289.75</ele><time>2026-04-08T09:28:41.99Z</time></trkpt><trkpt lat="44.6430467" lon="10.1746733"><ele>290.5</ele><time>2026-04-08T09:28:42.99Z</time></trkpt><trkpt lat="44.6429367" lon="10.174595"><ele>291.25</ele><time>2026-04-08T09:28:43.99Z</time></trkpt><trkpt lat="44.6428217" lon="10.1745017"><ele>292.0</ele><time>2026-04-08T09:28:44.99Z</time></trkpt><trkpt lat="44.6427017" lon="10.1743717"><ele>292.0</ele><time>2026-04-08T09:28:45.989Z</time></trkpt><trkpt lat="44.642565" lon="10.1742183"><ele>292.0</ele><time>2026-04-08T09:28:46.989Z</time></trkpt><trkpt lat="44.6424133" lon="10.1740483"><ele>292.0</ele><time>2026-04-08T09:28:47.989Z</time></trkpt><trkpt lat="44.64225" lon="10.1738583"><ele>292.3333333333333</ele><time>2026-04-08T09:28:48.99Z</time></trkpt><trkpt lat="44.642075" lon="10.1736617"><ele>292.6666666666667</ele><time>2026-04-08T09:28:49.99Z</time></trkpt><trkpt lat="44.6419017" lon="10.173475"><ele>293.0</ele><time>2026-04-08T09:28:50.99Z</time></trkpt><trkpt lat="44.6417433" lon="10.1733"><ele>295.33333333333337</ele><time>2026-04-08T09:28:51.989Z</time></trkpt><trkpt lat="44.641585" lon="10.1731233"><ele>297.6666666666667</ele><time>2026-04-08T09:28:52.99Z</time></trkpt><trkpt lat="44.6414267" lon="10.17294"><ele>300.0</ele><time>2026-04-08T09:28:53.989Z</time></trkpt><trkpt lat="44.6412783" lon="10.17277"><ele>300.0</ele><time>2026-04-08T09:28:54.99Z</time></trkpt><trkpt lat="44.641145" lon="10.17261"><ele>300.0</ele><time>2026-04-08T09:28:55.99Z</time></trkpt><trkpt lat="44.6410167" lon="10.1724517"><ele>300.0</ele><time>2026-04-08T09:28:56.99Z</time></trkpt><trkpt lat="44.6408867" lon="10.1723033"><ele>303.6666666666667</ele><time>2026-04-08T09:28:57.99Z</time></trkpt><trkpt lat="44.6407583" lon="10.1721817"><ele>307.33333333333337</ele><time>2026-04-08T09:28:58.99Z</time></trkpt><trkpt lat="44.6406217" lon="10.1720733"><ele>311.0</ele><time>2026-04-08T09:28:59.99Z</time></trkpt><trkpt lat="44.640475" lon="10.1719917"><ele>311.0</ele><time>2026-04-08T09:29:00.99Z</time></trkpt><trkpt lat="44.6403167" lon="10.1719167"><ele>311.0</ele><time>2026-04-08T09:29:01.99Z</time></trkpt><trkpt lat="44.6401433" lon="10.17184"><ele>311.0</ele><time>2026-04-08T09:29:02.989Z</time></trkpt><trkpt lat="44.63998" lon="10.1717583"><ele>311.0</ele><time>2026-04-08T09:29:03.99Z</time></trkpt><trkpt lat="44.6398067" lon="10.1716883"><ele>311.0</ele><time>2026-04-08T09:29:04.99Z</time></trkpt><trkpt lat="44.63962" lon="10.1716083"><ele>311.0</ele><time>2026-04-08T09:29:05.989Z</time></trkpt><trkpt lat="44.6394217" lon="10.1715133"><ele>311.0</ele><time>2026-04-08T09:29:06.99Z</time></trkpt><trkpt lat="44.639215" lon="10.1714"><ele>311.0</ele><time>2026-04-08T09:29:07.989Z</time></trkpt><trkpt lat="44.63901" lon="10.17129"><ele>311.0</ele><time>2026-04-08T09:29:08.989Z</time></trkpt><trkpt lat="44.638815" lon="10.1711833"><ele>309.0</ele><time>2026-04-08T09:29:09.99Z</time></trkpt><trkpt lat="44.6386317" lon="10.1710933"><ele>307.0</ele><time>2026-04-08T09:29:10.989Z</time></trkpt><trkpt lat="44.63846" lon="10.1710017"><ele>305.0</ele><time>2026-04-08T09:29:11.99Z</time></trkpt><trkpt lat="44.63828" lon="10.1709367"><ele>305.0</ele><time>2026-04-08T09:29:12.99Z</time></trkpt><trkpt lat="44.638095" lon="10.1709083"><ele>305.0</ele><time>2026-04-08T09:29:13.99Z</time></trkpt><trkpt lat="44.6379017" lon="10.170875"><ele>305.0</ele><time>2026-04-08T09:29:14.99Z</time></trkpt><trkpt lat="44.6377017" lon="10.170855"><ele>303.6666666666667</ele><time>2026-04-08T09:29:15.989Z</time></trkpt><trkpt lat="44.637505" lon="10.1708317"><ele>302.3333333333333</ele><time>2026-04-08T09:29:16.99Z</time></trkpt><trkpt lat="44.6373133" lon="10.17081"><ele>301.0</ele><time>2026-04-08T09:29:17.99Z</time></trkpt><trkpt lat="44.6371217" lon="10.1707483"><ele>304.0</ele><time>2026-04-08T09:29:18.99Z</time></trkpt><trkpt lat="44.636925" lon="10.1706817"><ele>307.0</ele><time>2026-04-08T09:29:19.99Z</time></trkpt><trkpt lat="44.6367583" lon="10.1706133"><ele>310.0</ele><time>2026-04-08T09:29:20.99Z</time></trkpt><trkpt lat="44.6366017" lon="10.1705533"><ele>310.0</ele><time>2026-04-08T09:29:21.99Z</time></trkpt><trkpt lat="44.636455" lon="10.1705"><ele>310.0</ele><time>2026-04-08T09:29:22.99Z</time></trkpt><trkpt lat="44.636345" lon="10.170435"><ele>310.0</ele><time>2026-04-08T09:29:23.99Z</time></trkpt><trkpt lat="44.636235" lon="10.1703867"><ele>310.0</ele><time>2026-04-08T09:29:24.989Z</time></trkpt><trkpt lat="44.636155" lon="10.1703567"><ele>309.66666666666663</ele><time>2026-04-08T09:29:25.99Z</time></trkpt><trkpt lat="44.63609" lon="10.1703333"><ele>309.3333333333333</ele><time>2026-04-08T09:29:26.99Z</time></trkpt><trkpt lat="44.6360233" lon="10.1703117"><ele>309.0</ele><time>2026-04-08T09:29:27.99Z</time></trkpt><trkpt lat="44.63596" lon="10.1702867"><ele>308.6666666666667</ele><time>2026-04-08T09:29:28.99Z</time></trkpt><trkpt lat="44.6358933" lon="10.1702567"><ele>308.33333333333337</ele><time>2026-04-08T09:29:29.99Z</time></trkpt><trkpt lat="44.6358083" lon="10.170215"><ele>308.0</ele><time>2026-04-08T09:29:30.99Z</time></trkpt><trkpt lat="44.6357133" lon="10.1701567"><ele>308.0</ele><time>2026-04-08T09:29:31.99Z</time></trkpt><trkpt lat="44.6356317" lon="10.1700917"><ele>308.0</ele><time>2026-04-08T09:29:32.989Z</time></trkpt><trkpt lat="44.635545" lon="10.1700217"><ele>308.0</ele><time>2026-04-08T09:29:33.989Z</time></trkpt><trkpt lat="44.635465" lon="10.1699667"><ele>308.0</ele><time>2026-04-08T09:29:34.99Z</time></trkpt><trkpt lat="44.63539" lon="10.169925"><ele>308.0</ele><time>2026-04-08T09:29:35.99Z</time></trkpt><trkpt lat="44.635315" lon="10.16991"><ele>308.0</ele><time>2026-04-08T09:29:36.99Z</time></trkpt><trkpt lat="44.635245" lon="10.1699067"><ele>307.8</ele><time>2026-04-08T09:29:37.99Z</time></trkpt><trkpt lat="44.6351683" lon="10.1699217"><ele>307.6</ele><time>2026-04-08T09:29:38.989Z</time></trkpt><trkpt lat="44.635105" lon="10.1699517"><ele>307.4</ele><time>2026-04-08T09:29:39.99Z</time></trkpt><trkpt lat="44.6350033" lon="10.170015"><ele>307.2</ele><time>2026-04-08T09:29:41.99Z</time></trkpt><trkpt lat="44.634945" lon="10.1701217"><ele>307.0</ele><time>2026-04-08T09:29:43.99Z</time></trkpt><trkpt lat="44.6349183" lon="10.170275"><ele>307.0</ele><time>2026-04-08T09:29:45.99Z</time></trkpt><trkpt lat="44.634915" lon="10.1703867"><ele>307.0</ele><time>2026-04-08T09:29:47.99Z</time></trkpt><trkpt lat="44.63495" lon="10.1704783"><ele>307.0</ele><time>2026-04-08T09:29:49.99Z</time></trkpt><trkpt lat="44.635" lon="10.170565"><ele>307.0</ele><time>2026-04-08T09:29:51.989Z</time></trkpt><trkpt lat="44.6350567" lon="10.1706533"><ele>307.0</ele><time>2026-04-08T09:29:54.99Z</time></trkpt><trkpt lat="44.6351333" lon="10.1706867"><ele>307.0</ele><time>2026-04-08T09:29:57.99Z</time></trkpt><trkpt lat="44.63519" lon="10.17064"><ele>307.0</ele><time>2026-04-08T09:30:00.99Z</time></trkpt><trkpt lat="44.63514" lon="10.1705617"><ele>307.0</ele><time>2026-04-08T09:30:35.991Z</time></trkpt><trkpt lat="44.635075" lon="10.1705417"><ele>307.0</ele><time>2026-04-08T09:30:37.991Z</time></trkpt><trkpt lat="44.635015" lon="10.1705133"><ele>307.0</ele><time>2026-04-08T09:30:39.991Z</time></trkpt><trkpt lat="44.6349517" lon="10.1704233"><ele>307.0</ele><time>2026-04-08T09:30:42.991Z</time></trkpt><trkpt lat="44.63491" lon="10.1703133"><ele>307.0</ele><time>2026-04-08T09:30:44.99Z</time></trkpt><trkpt lat="44.6348567" lon="10.170185"><ele>307.0</ele><time>2026-04-08T09:30:46.99Z</time></trkpt><trkpt lat="44.634785" lon="10.1700783"><ele>307.0</ele><time>2026-04-08T09:30:48.991Z</time></trkpt><trkpt lat="44.6347567" lon="10.169965"><ele>307.0</ele><time>2026-04-08T09:30:50.991Z</time></trkpt><trkpt lat="44.6347483" lon="10.1698533"><ele>307.0</ele><time>2026-04-08T09:30:52.991Z</time></trkpt><trkpt lat="44.634725" lon="10.16973"><ele>307.0</ele><time>2026-04-08T09:30:54.991Z</time></trkpt><trkpt lat="44.634685" lon="10.1696333"><ele>307.0</ele><time>2026-04-08T09:30:56.991Z</time></trkpt><trkpt lat="44.6346117" lon="10.1695617"><ele>318.0</ele><time>2026-04-08T09:30:58.991Z</time></trkpt><trkpt lat="44.6345367" lon="10.1695067"><ele>318.0</ele><time>2026-04-08T09:31:00.991Z</time></trkpt><trkpt lat="44.634465" lon="10.169485"><ele>311.0</ele><time>2026-04-08T09:31:02.991Z</time></trkpt><trkpt lat="44.6343933" lon="10.1694783"><ele>311.0</ele><time>2026-04-08T09:31:05.991Z</time></trkpt></trkseg></trk></gpx>